<?xml version="1.0" encoding="UTF-8" standalone="no" ?>
<gpx xmlns="http://www.topografix.com/GPX/1/1" xmlns:xsi="http://www.w3.org/2001/XMLSchema-instance" xsi:schemaLocation="http://www.topografix.com/GPX/1/1 http://www.topografix.com/GPX/1/1/gpx.xsd" version="1.1" creator="VisuGPX - https://www.visugpx.com">
  <metadata>
    <name>Sortie RandoSport 20 mars 2011</name>
    <desc><![CDATA[Elle m\'a bien scié les pattes la dernière picade....]]></desc>
  </metadata>
  <trk>
    <name><![CDATA[20 mars 2011 RandoSport]]></name>
    <trkseg>
      <trkpt lat="49.8828" lon="1.20931">
        <ele>127.968079</ele>
        <time>2011-03-20T07:58:33Z</time>
      </trkpt>
      <trkpt lat="49.8827" lon="1.2095">
        <ele>127.805939</ele>
        <time>2011-03-20T07:58:47Z</time>
      </trkpt>
      <trkpt lat="49.88253" lon="1.20958">
        <ele>127.56945</ele>
        <time>2011-03-20T07:59:01Z</time>
      </trkpt>
      <trkpt lat="49.88244" lon="1.20954">
        <ele>127.509857</ele>
        <time>2011-03-20T07:59:15Z</time>
      </trkpt>
      <trkpt lat="49.8825" lon="1.20944">
        <ele>127.707504</ele>
        <time>2011-03-20T07:59:46Z</time>
      </trkpt>
      <trkpt lat="49.88255" lon="1.20934">
        <ele>127.854286</ele>
        <time>2011-03-20T08:00:18Z</time>
      </trkpt>
      <trkpt lat="49.88246" lon="1.20933">
        <ele>127.830086</ele>
        <time>2011-03-20T08:01:14Z</time>
      </trkpt>
      <trkpt lat="49.8824" lon="1.20926">
        <ele>127.841301</ele>
        <time>2011-03-20T08:01:51Z</time>
      </trkpt>
      <trkpt lat="49.88255" lon="1.20889">
        <ele>128</ele>
        <time>2011-03-20T08:02:05Z</time>
      </trkpt>
      <trkpt lat="49.88286" lon="1.20837">
        <ele>128.180557</ele>
        <time>2011-03-20T08:02:19Z</time>
      </trkpt>
      <trkpt lat="49.88317" lon="1.20795">
        <ele>128.921631</ele>
        <time>2011-03-20T08:02:33Z</time>
      </trkpt>
      <trkpt lat="49.88338" lon="1.20766">
        <ele>129</ele>
        <time>2011-03-20T08:02:47Z</time>
      </trkpt>
      <trkpt lat="49.88354" lon="1.20737">
        <ele>129</ele>
        <time>2011-03-20T08:03:01Z</time>
      </trkpt>
      <trkpt lat="49.88338" lon="1.20754">
        <ele>129</ele>
        <time>2011-03-20T08:03:15Z</time>
      </trkpt>
      <trkpt lat="49.8836" lon="1.20728">
        <ele>129</ele>
        <time>2011-03-20T08:03:29Z</time>
      </trkpt>
      <trkpt lat="49.88378" lon="1.20702">
        <ele>129</ele>
        <time>2011-03-20T08:03:43Z</time>
      </trkpt>
      <trkpt lat="49.884" lon="1.20662">
        <ele>129</ele>
        <time>2011-03-20T08:03:57Z</time>
      </trkpt>
      <trkpt lat="49.88429" lon="1.20616">
        <ele>129</ele>
        <time>2011-03-20T08:04:11Z</time>
      </trkpt>
      <trkpt lat="49.88455" lon="1.20568">
        <ele>129</ele>
        <time>2011-03-20T08:04:25Z</time>
      </trkpt>
      <trkpt lat="49.88481" lon="1.20525">
        <ele>129</ele>
        <time>2011-03-20T08:04:39Z</time>
      </trkpt>
      <trkpt lat="49.88489" lon="1.20496">
        <ele>129</ele>
        <time>2011-03-20T08:04:53Z</time>
      </trkpt>
      <trkpt lat="49.88482" lon="1.20488">
        <ele>129</ele>
        <time>2011-03-20T08:05:13Z</time>
      </trkpt>
      <trkpt lat="49.88474" lon="1.2051">
        <ele>129</ele>
        <time>2011-03-20T08:05:27Z</time>
      </trkpt>
      <trkpt lat="49.88464" lon="1.20476">
        <ele>129</ele>
        <time>2011-03-20T08:05:41Z</time>
      </trkpt>
      <trkpt lat="49.88443" lon="1.20419">
        <ele>128.831253</ele>
        <time>2011-03-20T08:05:55Z</time>
      </trkpt>
      <trkpt lat="49.8842" lon="1.20365">
        <ele>128.052505</ele>
        <time>2011-03-20T08:06:09Z</time>
      </trkpt>
      <trkpt lat="49.88393" lon="1.20317">
        <ele>128.201996</ele>
        <time>2011-03-20T08:06:23Z</time>
      </trkpt>
      <trkpt lat="49.88364" lon="1.20242">
        <ele>128</ele>
        <time>2011-03-20T08:06:37Z</time>
      </trkpt>
      <trkpt lat="49.88353" lon="1.20183">
        <ele>127.401253</ele>
        <time>2011-03-20T08:06:51Z</time>
      </trkpt>
      <trkpt lat="49.88354" lon="1.20102">
        <ele>127</ele>
        <time>2011-03-20T08:07:05Z</time>
      </trkpt>
      <trkpt lat="49.88346" lon="1.20018">
        <ele>127</ele>
        <time>2011-03-20T08:07:19Z</time>
      </trkpt>
      <trkpt lat="49.88351" lon="1.19936">
        <ele>126.854378</ele>
        <time>2011-03-20T08:07:33Z</time>
      </trkpt>
      <trkpt lat="49.88347" lon="1.19848">
        <ele>126</ele>
        <time>2011-03-20T08:07:47Z</time>
      </trkpt>
      <trkpt lat="49.88342" lon="1.19769">
        <ele>126</ele>
        <time>2011-03-20T08:08:01Z</time>
      </trkpt>
      <trkpt lat="49.88338" lon="1.19687">
        <ele>126</ele>
        <time>2011-03-20T08:08:15Z</time>
      </trkpt>
      <trkpt lat="49.8834" lon="1.19597">
        <ele>125.970627</ele>
        <time>2011-03-20T08:08:29Z</time>
      </trkpt>
      <trkpt lat="49.88345" lon="1.19504">
        <ele>125</ele>
        <time>2011-03-20T08:08:43Z</time>
      </trkpt>
      <trkpt lat="49.88341" lon="1.19417">
        <ele>124.71595</ele>
        <time>2011-03-20T08:08:57Z</time>
      </trkpt>
      <trkpt lat="49.8834" lon="1.19297">
        <ele>124</ele>
        <time>2011-03-20T08:09:11Z</time>
      </trkpt>
      <trkpt lat="49.8834" lon="1.19205">
        <ele>123.324997</ele>
        <time>2011-03-20T08:09:25Z</time>
      </trkpt>
      <trkpt lat="49.88344" lon="1.19104">
        <ele>122.878128</ele>
        <time>2011-03-20T08:09:39Z</time>
      </trkpt>
      <trkpt lat="49.88377" lon="1.1906">
        <ele>122.258751</ele>
        <time>2011-03-20T08:09:53Z</time>
      </trkpt>
      <trkpt lat="49.88381" lon="1.19051">
        <ele>122.130623</ele>
        <time>2011-03-20T08:10:35Z</time>
      </trkpt>
      <trkpt lat="49.88385" lon="1.18957">
        <ele>122</ele>
        <time>2011-03-20T08:10:49Z</time>
      </trkpt>
      <trkpt lat="49.88393" lon="1.18907">
        <ele>122</ele>
        <time>2011-03-20T08:11:03Z</time>
      </trkpt>
      <trkpt lat="49.88429" lon="1.1882">
        <ele>121</ele>
        <time>2011-03-20T08:11:17Z</time>
      </trkpt>
      <trkpt lat="49.88446" lon="1.18752">
        <ele>121</ele>
        <time>2011-03-20T08:11:31Z</time>
      </trkpt>
      <trkpt lat="49.88457" lon="1.18682">
        <ele>120.670662</ele>
        <time>2011-03-20T08:11:45Z</time>
      </trkpt>
      <trkpt lat="49.88487" lon="1.186">
        <ele>120</ele>
        <time>2011-03-20T08:11:59Z</time>
      </trkpt>
      <trkpt lat="49.88525" lon="1.18528">
        <ele>119.176514</ele>
        <time>2011-03-20T08:12:13Z</time>
      </trkpt>
      <trkpt lat="49.88513" lon="1.18466">
        <ele>118.87352</ele>
        <time>2011-03-20T08:12:27Z</time>
      </trkpt>
      <trkpt lat="49.88505" lon="1.18363">
        <ele>118.178871</ele>
        <time>2011-03-20T08:12:42Z</time>
      </trkpt>
      <trkpt lat="49.88534" lon="1.18297">
        <ele>117.326248</ele>
        <time>2011-03-20T08:12:56Z</time>
      </trkpt>
      <trkpt lat="49.88575" lon="1.18242">
        <ele>116.046379</ele>
        <time>2011-03-20T08:13:10Z</time>
      </trkpt>
      <trkpt lat="49.8861" lon="1.18176">
        <ele>115.18087</ele>
        <time>2011-03-20T08:13:24Z</time>
      </trkpt>
      <trkpt lat="49.8865" lon="1.18099">
        <ele>114.194427</ele>
        <time>2011-03-20T08:13:38Z</time>
      </trkpt>
      <trkpt lat="49.88664" lon="1.18036">
        <ele>113.615623</ele>
        <time>2011-03-20T08:13:52Z</time>
      </trkpt>
      <trkpt lat="49.88666" lon="1.18028">
        <ele>113.489998</ele>
        <time>2011-03-20T08:14:11Z</time>
      </trkpt>
      <trkpt lat="49.88677" lon="1.17933">
        <ele>112.388123</ele>
        <time>2011-03-20T08:14:25Z</time>
      </trkpt>
      <trkpt lat="49.88683" lon="1.17819">
        <ele>112.830002</ele>
        <time>2011-03-20T08:14:39Z</time>
      </trkpt>
      <trkpt lat="49.88693" lon="1.17709">
        <ele>113.729378</ele>
        <time>2011-03-20T08:14:53Z</time>
      </trkpt>
      <trkpt lat="49.88701" lon="1.17593">
        <ele>114.860001</ele>
        <time>2011-03-20T08:15:07Z</time>
      </trkpt>
      <trkpt lat="49.88711" lon="1.17482">
        <ele>115.110001</ele>
        <time>2011-03-20T08:15:21Z</time>
      </trkpt>
      <trkpt lat="49.88724" lon="1.17377">
        <ele>115.404999</ele>
        <time>2011-03-20T08:15:35Z</time>
      </trkpt>
      <trkpt lat="49.88728" lon="1.1726">
        <ele>115.525002</ele>
        <time>2011-03-20T08:15:49Z</time>
      </trkpt>
      <trkpt lat="49.8873" lon="1.1714">
        <ele>115.333122</ele>
        <time>2011-03-20T08:16:03Z</time>
      </trkpt>
      <trkpt lat="49.88738" lon="1.17013">
        <ele>113.916878</ele>
        <time>2011-03-20T08:16:17Z</time>
      </trkpt>
      <trkpt lat="49.8875" lon="1.16883">
        <ele>113.003876</ele>
        <time>2011-03-20T08:16:31Z</time>
      </trkpt>
      <trkpt lat="49.8876" lon="1.16736">
        <ele>111.930626</ele>
        <time>2011-03-20T08:16:45Z</time>
      </trkpt>
      <trkpt lat="49.88765" lon="1.16577">
        <ele>109.647499</ele>
        <time>2011-03-20T08:16:59Z</time>
      </trkpt>
      <trkpt lat="49.8877" lon="1.16438">
        <ele>107.868416</ele>
        <time>2011-03-20T08:17:13Z</time>
      </trkpt>
      <trkpt lat="49.88779" lon="1.1633">
        <ele>107.088631</ele>
        <time>2011-03-20T08:17:27Z</time>
      </trkpt>
      <trkpt lat="49.88814" lon="1.16212">
        <ele>106.801735</ele>
        <time>2011-03-20T08:17:41Z</time>
      </trkpt>
      <trkpt lat="49.88852" lon="1.16094">
        <ele>106</ele>
        <time>2011-03-20T08:17:55Z</time>
      </trkpt>
      <trkpt lat="49.88893" lon="1.15965">
        <ele>105</ele>
        <time>2011-03-20T08:18:09Z</time>
      </trkpt>
      <trkpt lat="49.88934" lon="1.15829">
        <ele>103.976936</ele>
        <time>2011-03-20T08:18:23Z</time>
      </trkpt>
      <trkpt lat="49.88976" lon="1.157">
        <ele>103</ele>
        <time>2011-03-20T08:18:37Z</time>
      </trkpt>
      <trkpt lat="49.89013" lon="1.15565">
        <ele>102</ele>
        <time>2011-03-20T08:18:51Z</time>
      </trkpt>
      <trkpt lat="49.89056" lon="1.15422">
        <ele>101</ele>
        <time>2011-03-20T08:19:05Z</time>
      </trkpt>
      <trkpt lat="49.89097" lon="1.15301">
        <ele>99.331802</ele>
        <time>2011-03-20T08:19:19Z</time>
      </trkpt>
      <trkpt lat="49.89137" lon="1.15175">
        <ele>97.543945</ele>
        <time>2011-03-20T08:19:33Z</time>
      </trkpt>
      <trkpt lat="49.89153" lon="1.15119">
        <ele>96.800629</ele>
        <time>2011-03-20T08:19:47Z</time>
      </trkpt>
      <trkpt lat="49.89124" lon="1.15109">
        <ele>96.709145</ele>
        <time>2011-03-20T08:20:01Z</time>
      </trkpt>
      <trkpt lat="49.89068" lon="1.15078">
        <ele>97.075073</ele>
        <time>2011-03-20T08:20:15Z</time>
      </trkpt>
      <trkpt lat="49.89" lon="1.15045">
        <ele>96.35125</ele>
        <time>2011-03-20T08:20:29Z</time>
      </trkpt>
      <trkpt lat="49.88928" lon="1.14985">
        <ele>94.796875</ele>
        <time>2011-03-20T08:20:43Z</time>
      </trkpt>
      <trkpt lat="49.88859" lon="1.14947">
        <ele>94.487068</ele>
        <time>2011-03-20T08:20:57Z</time>
      </trkpt>
      <trkpt lat="49.88786" lon="1.14907">
        <ele>94.245003</ele>
        <time>2011-03-20T08:21:11Z</time>
      </trkpt>
      <trkpt lat="49.88708" lon="1.1485">
        <ele>92.137497</ele>
        <time>2011-03-20T08:21:25Z</time>
      </trkpt>
      <trkpt lat="49.8863" lon="1.14789">
        <ele>88.747498</ele>
        <time>2011-03-20T08:21:39Z</time>
      </trkpt>
      <trkpt lat="49.88565" lon="1.14743">
        <ele>86.061874</ele>
        <time>2011-03-20T08:21:53Z</time>
      </trkpt>
      <trkpt lat="49.88552" lon="1.1472">
        <ele>85.138191</ele>
        <time>2011-03-20T08:22:07Z</time>
      </trkpt>
      <trkpt lat="49.88552" lon="1.1466">
        <ele>84.101501</ele>
        <time>2011-03-20T08:22:21Z</time>
      </trkpt>
      <trkpt lat="49.88577" lon="1.14627">
        <ele>83.035004</ele>
        <time>2011-03-20T08:22:35Z</time>
      </trkpt>
      <trkpt lat="49.88622" lon="1.14598">
        <ele>83.092499</ele>
        <time>2011-03-20T08:22:49Z</time>
      </trkpt>
      <trkpt lat="49.88661" lon="1.14571">
        <ele>82.224564</ele>
        <time>2011-03-20T08:23:03Z</time>
      </trkpt>
      <trkpt lat="49.88693" lon="1.14555">
        <ele>82.105911</ele>
        <time>2011-03-20T08:23:17Z</time>
      </trkpt>
      <trkpt lat="49.8873" lon="1.14532">
        <ele>82.258499</ele>
        <time>2011-03-20T08:23:31Z</time>
      </trkpt>
      <trkpt lat="49.8877" lon="1.14506">
        <ele>83.492065</ele>
        <time>2011-03-20T08:23:45Z</time>
      </trkpt>
      <trkpt lat="49.88803" lon="1.14483">
        <ele>84.075996</ele>
        <time>2011-03-20T08:23:59Z</time>
      </trkpt>
      <trkpt lat="49.88809" lon="1.1443">
        <ele>82.087738</ele>
        <time>2011-03-20T08:24:13Z</time>
      </trkpt>
      <trkpt lat="49.88812" lon="1.1436">
        <ele>77.809921</ele>
        <time>2011-03-20T08:24:27Z</time>
      </trkpt>
      <trkpt lat="49.8884" lon="1.14323">
        <ele>74.28672</ele>
        <time>2011-03-20T08:24:41Z</time>
      </trkpt>
      <trkpt lat="49.88834" lon="1.14137">
        <ele>45.682499</ele>
        <time>2011-03-20T08:24:55Z</time>
      </trkpt>
      <trkpt lat="49.88744" lon="1.14184">
        <ele>43.945374</ele>
        <time>2011-03-20T08:25:09Z</time>
      </trkpt>
      <trkpt lat="49.88649" lon="1.14278">
        <ele>42.586998</ele>
        <time>2011-03-20T08:25:23Z</time>
      </trkpt>
      <trkpt lat="49.88564" lon="1.14313">
        <ele>41.077576</ele>
        <time>2011-03-20T08:25:37Z</time>
      </trkpt>
      <trkpt lat="49.88436" lon="1.14159">
        <ele>17.375601</ele>
        <time>2011-03-20T08:25:51Z</time>
      </trkpt>
      <trkpt lat="49.88395" lon="1.14041">
        <ele>9.897747</ele>
        <time>2011-03-20T08:32:53Z</time>
      </trkpt>
      <trkpt lat="49.884" lon="1.14036">
        <ele>9.786875</ele>
        <time>2011-03-20T08:36:00Z</time>
      </trkpt>
      <trkpt lat="49.8846" lon="1.1399">
        <ele>9.293013</ele>
        <time>2011-03-20T08:36:14Z</time>
      </trkpt>
      <trkpt lat="49.8853" lon="1.13933">
        <ele>10.108606</ele>
        <time>2011-03-20T08:36:28Z</time>
      </trkpt>
      <trkpt lat="49.88601" lon="1.13871">
        <ele>10.339956</ele>
        <time>2011-03-20T08:36:42Z</time>
      </trkpt>
      <trkpt lat="49.88666" lon="1.13814">
        <ele>9.059</ele>
        <time>2011-03-20T08:36:56Z</time>
      </trkpt>
      <trkpt lat="49.88726" lon="1.13762">
        <ele>8.42375</ele>
        <time>2011-03-20T08:37:10Z</time>
      </trkpt>
      <trkpt lat="49.88728" lon="1.13697">
        <ele>4.956906</ele>
        <time>2011-03-20T08:37:24Z</time>
      </trkpt>
      <trkpt lat="49.88668" lon="1.13634">
        <ele>4.009406</ele>
        <time>2011-03-20T08:37:38Z</time>
      </trkpt>
      <trkpt lat="49.88596" lon="1.13597">
        <ele>4.43005</ele>
        <time>2011-03-20T08:37:52Z</time>
      </trkpt>
      <trkpt lat="49.88516" lon="1.13606">
        <ele>5</ele>
        <time>2011-03-20T08:38:06Z</time>
      </trkpt>
      <trkpt lat="49.88445" lon="1.13613">
        <ele>5</ele>
        <time>2011-03-20T08:38:20Z</time>
      </trkpt>
      <trkpt lat="49.88379" lon="1.13619">
        <ele>5</ele>
        <time>2011-03-20T08:38:34Z</time>
      </trkpt>
      <trkpt lat="49.8832" lon="1.13589">
        <ele>4.6125</ele>
        <time>2011-03-20T08:38:48Z</time>
      </trkpt>
      <trkpt lat="49.88249" lon="1.13581">
        <ele>4.649375</ele>
        <time>2011-03-20T08:39:02Z</time>
      </trkpt>
      <trkpt lat="49.88166" lon="1.136">
        <ele>4.320484</ele>
        <time>2011-03-20T08:39:16Z</time>
      </trkpt>
      <trkpt lat="49.88115" lon="1.13587">
        <ele>4</ele>
        <time>2011-03-20T08:39:30Z</time>
      </trkpt>
      <trkpt lat="49.88106" lon="1.13476">
        <ele>4.49</ele>
        <time>2011-03-20T08:39:44Z</time>
      </trkpt>
      <trkpt lat="49.88098" lon="1.1339">
        <ele>4.189975</ele>
        <time>2011-03-20T08:39:58Z</time>
      </trkpt>
      <trkpt lat="49.88067" lon="1.13389">
        <ele>4</ele>
        <time>2011-03-20T08:40:12Z</time>
      </trkpt>
      <trkpt lat="49.88008" lon="1.13444">
        <ele>4</ele>
        <time>2011-03-20T08:40:26Z</time>
      </trkpt>
      <trkpt lat="49.87942" lon="1.13461">
        <ele>4</ele>
        <time>2011-03-20T08:40:40Z</time>
      </trkpt>
      <trkpt lat="49.8788" lon="1.1351">
        <ele>4.428847</ele>
        <time>2011-03-20T08:40:54Z</time>
      </trkpt>
      <trkpt lat="49.87816" lon="1.1357">
        <ele>4.937788</ele>
        <time>2011-03-20T08:41:08Z</time>
      </trkpt>
      <trkpt lat="49.87775" lon="1.13678">
        <ele>4.376922</ele>
        <time>2011-03-20T08:41:22Z</time>
      </trkpt>
      <trkpt lat="49.87704" lon="1.1377">
        <ele>4.631875</ele>
        <time>2011-03-20T08:41:36Z</time>
      </trkpt>
      <trkpt lat="49.87655" lon="1.13844">
        <ele>5.645</ele>
        <time>2011-03-20T08:41:50Z</time>
      </trkpt>
      <trkpt lat="49.87609" lon="1.13914">
        <ele>5.7006</ele>
        <time>2011-03-20T08:42:04Z</time>
      </trkpt>
      <trkpt lat="49.87562" lon="1.14021">
        <ele>5.88075</ele>
        <time>2011-03-20T08:42:18Z</time>
      </trkpt>
      <trkpt lat="49.87532" lon="1.14139">
        <ele>5.383344</ele>
        <time>2011-03-20T08:42:32Z</time>
      </trkpt>
      <trkpt lat="49.87502" lon="1.14238">
        <ele>5.13</ele>
        <time>2011-03-20T08:42:46Z</time>
      </trkpt>
      <trkpt lat="49.87452" lon="1.14209">
        <ele>6</ele>
        <time>2011-03-20T08:43:00Z</time>
      </trkpt>
      <trkpt lat="49.87417" lon="1.14139">
        <ele>6.005</ele>
        <time>2011-03-20T08:43:14Z</time>
      </trkpt>
      <trkpt lat="49.87387" lon="1.14075">
        <ele>6.1155</ele>
        <time>2011-03-20T08:43:28Z</time>
      </trkpt>
      <trkpt lat="49.87363" lon="1.14013">
        <ele>6.044344</ele>
        <time>2011-03-20T08:43:42Z</time>
      </trkpt>
      <trkpt lat="49.87359" lon="1.13931">
        <ele>6</ele>
        <time>2011-03-20T08:43:56Z</time>
      </trkpt>
      <trkpt lat="49.87359" lon="1.13848">
        <ele>6</ele>
        <time>2011-03-20T08:44:10Z</time>
      </trkpt>
      <trkpt lat="49.87368" lon="1.13763">
        <ele>6</ele>
        <time>2011-03-20T08:44:24Z</time>
      </trkpt>
      <trkpt lat="49.87396" lon="1.13684">
        <ele>6</ele>
        <time>2011-03-20T08:44:38Z</time>
      </trkpt>
      <trkpt lat="49.87428" lon="1.13605">
        <ele>6</ele>
        <time>2011-03-20T08:44:52Z</time>
      </trkpt>
      <trkpt lat="49.87471" lon="1.13524">
        <ele>6</ele>
        <time>2011-03-20T08:45:06Z</time>
      </trkpt>
      <trkpt lat="49.87517" lon="1.13452">
        <ele>6</ele>
        <time>2011-03-20T08:45:20Z</time>
      </trkpt>
      <trkpt lat="49.87564" lon="1.13391">
        <ele>6</ele>
        <time>2011-03-20T08:45:34Z</time>
      </trkpt>
      <trkpt lat="49.87616" lon="1.13331">
        <ele>6.178984</ele>
        <time>2011-03-20T08:45:48Z</time>
      </trkpt>
      <trkpt lat="49.87662" lon="1.13263">
        <ele>5.876206</ele>
        <time>2011-03-20T08:46:02Z</time>
      </trkpt>
      <trkpt lat="49.87705" lon="1.13217">
        <ele>5.690444</ele>
        <time>2011-03-20T08:46:16Z</time>
      </trkpt>
      <trkpt lat="49.87749" lon="1.13203">
        <ele>5.63875</ele>
        <time>2011-03-20T08:46:30Z</time>
      </trkpt>
      <trkpt lat="49.8777" lon="1.13168">
        <ele>5.694906</ele>
        <time>2011-03-20T08:46:44Z</time>
      </trkpt>
      <trkpt lat="49.87795" lon="1.13125">
        <ele>5.365</ele>
        <time>2011-03-20T08:46:58Z</time>
      </trkpt>
      <trkpt lat="49.87827" lon="1.1309">
        <ele>5</ele>
        <time>2011-03-20T08:47:12Z</time>
      </trkpt>
      <trkpt lat="49.87829" lon="1.13045">
        <ele>5.292538</ele>
        <time>2011-03-20T08:47:26Z</time>
      </trkpt>
      <trkpt lat="49.87823" lon="1.13026">
        <ele>5.550781</ele>
        <time>2011-03-20T08:47:40Z</time>
      </trkpt>
      <trkpt lat="49.87819" lon="1.13015">
        <ele>5.762413</ele>
        <time>2011-03-20T08:47:54Z</time>
      </trkpt>
      <trkpt lat="49.87822" lon="1.13007">
        <ele>5.970109</ele>
        <time>2011-03-20T08:48:35Z</time>
      </trkpt>
      <trkpt lat="49.87857" lon="1.12985">
        <ele>6.357687</ele>
        <time>2011-03-20T08:48:49Z</time>
      </trkpt>
      <trkpt lat="49.87895" lon="1.12957">
        <ele>6.633637</ele>
        <time>2011-03-20T08:49:03Z</time>
      </trkpt>
      <trkpt lat="49.87931" lon="1.12934">
        <ele>7.27195</ele>
        <time>2011-03-20T08:49:17Z</time>
      </trkpt>
      <trkpt lat="49.8795" lon="1.12922">
        <ele>7.5325</ele>
        <time>2011-03-20T08:49:31Z</time>
      </trkpt>
      <trkpt lat="49.87936" lon="1.12924">
        <ele>7.723938</ele>
        <time>2011-03-20T08:49:45Z</time>
      </trkpt>
      <trkpt lat="49.87931" lon="1.12933">
        <ele>7.297506</ele>
        <time>2011-03-20T08:50:03Z</time>
      </trkpt>
      <trkpt lat="49.87936" lon="1.1286">
        <ele>11.013021</ele>
        <time>2011-03-20T08:50:31Z</time>
      </trkpt>
      <trkpt lat="49.87935" lon="1.12849">
        <ele>11.734647</ele>
        <time>2011-03-20T08:50:48Z</time>
      </trkpt>
      <trkpt lat="49.87934" lon="1.12833">
        <ele>12.729693</ele>
        <time>2011-03-20T08:51:02Z</time>
      </trkpt>
      <trkpt lat="49.8794" lon="1.12825">
        <ele>12.786819</ele>
        <time>2011-03-20T08:51:47Z</time>
      </trkpt>
      <trkpt lat="49.87977" lon="1.12794">
        <ele>12.718713</ele>
        <time>2011-03-20T08:52:01Z</time>
      </trkpt>
      <trkpt lat="49.88003" lon="1.1277">
        <ele>12.324</ele>
        <time>2011-03-20T08:52:15Z</time>
      </trkpt>
      <trkpt lat="49.88009" lon="1.12717">
        <ele>14.335387</ele>
        <time>2011-03-20T08:52:29Z</time>
      </trkpt>
      <trkpt lat="49.88012" lon="1.1267">
        <ele>17.292326</ele>
        <time>2011-03-20T08:52:43Z</time>
      </trkpt>
      <trkpt lat="49.8801" lon="1.12623">
        <ele>21.346251</ele>
        <time>2011-03-20T08:52:57Z</time>
      </trkpt>
      <trkpt lat="49.88005" lon="1.1258">
        <ele>25.247499</ele>
        <time>2011-03-20T08:53:11Z</time>
      </trkpt>
      <trkpt lat="49.87998" lon="1.12571">
        <ele>26.350624</ele>
        <time>2011-03-20T08:53:34Z</time>
      </trkpt>
      <trkpt lat="49.87974" lon="1.12583">
        <ele>29.487656</ele>
        <time>2011-03-20T08:53:48Z</time>
      </trkpt>
      <trkpt lat="49.87947" lon="1.12558">
        <ele>34.745483</ele>
        <time>2011-03-20T08:54:02Z</time>
      </trkpt>
      <trkpt lat="49.87926" lon="1.12536">
        <ele>38.253826</ele>
        <time>2011-03-20T08:54:16Z</time>
      </trkpt>
      <trkpt lat="49.87907" lon="1.12531">
        <ele>41.376598</ele>
        <time>2011-03-20T08:54:30Z</time>
      </trkpt>
      <trkpt lat="49.8791" lon="1.12569">
        <ele>39.584251</ele>
        <time>2011-03-20T08:54:44Z</time>
      </trkpt>
      <trkpt lat="49.87894" lon="1.12591">
        <ele>40.30722</ele>
        <time>2011-03-20T08:54:58Z</time>
      </trkpt>
      <trkpt lat="49.87895" lon="1.1255">
        <ele>42.363026</ele>
        <time>2011-03-20T08:55:12Z</time>
      </trkpt>
      <trkpt lat="49.87877" lon="1.12546">
        <ele>45.980499</ele>
        <time>2011-03-20T08:55:26Z</time>
      </trkpt>
      <trkpt lat="49.87859" lon="1.12569">
        <ele>48.459213</ele>
        <time>2011-03-20T08:55:40Z</time>
      </trkpt>
      <trkpt lat="49.87846" lon="1.12582">
        <ele>50.288986</ele>
        <time>2011-03-20T08:55:54Z</time>
      </trkpt>
      <trkpt lat="49.87842" lon="1.12571">
        <ele>51.54475</ele>
        <time>2011-03-20T08:58:20Z</time>
      </trkpt>
      <trkpt lat="49.87808" lon="1.12547">
        <ele>56.629395</ele>
        <time>2011-03-20T08:58:34Z</time>
      </trkpt>
      <trkpt lat="49.87775" lon="1.12572">
        <ele>59.83316</ele>
        <time>2011-03-20T08:58:48Z</time>
      </trkpt>
      <trkpt lat="49.87745" lon="1.12597">
        <ele>64.352501</ele>
        <time>2011-03-20T08:59:02Z</time>
      </trkpt>
      <trkpt lat="49.87716" lon="1.1262">
        <ele>66.357925</ele>
        <time>2011-03-20T08:59:16Z</time>
      </trkpt>
      <trkpt lat="49.87686" lon="1.12642">
        <ele>69.79525</ele>
        <time>2011-03-20T08:59:30Z</time>
      </trkpt>
      <trkpt lat="49.87662" lon="1.1266">
        <ele>73.381241</ele>
        <time>2011-03-20T08:59:44Z</time>
      </trkpt>
      <trkpt lat="49.87643" lon="1.12672">
        <ele>74.348503</ele>
        <time>2011-03-20T08:59:58Z</time>
      </trkpt>
      <trkpt lat="49.87615" lon="1.12705">
        <ele>74.448502</ele>
        <time>2011-03-20T09:00:12Z</time>
      </trkpt>
      <trkpt lat="49.87612" lon="1.12686">
        <ele>73.077896</ele>
        <time>2011-03-20T09:00:26Z</time>
      </trkpt>
      <trkpt lat="49.87575" lon="1.12763">
        <ele>74.357719</ele>
        <time>2011-03-20T09:00:40Z</time>
      </trkpt>
      <trkpt lat="49.87607" lon="1.12796">
        <ele>66.2388</ele>
        <time>2011-03-20T09:00:54Z</time>
      </trkpt>
      <trkpt lat="49.87633" lon="1.12798">
        <ele>62.007374</ele>
        <time>2011-03-20T09:01:08Z</time>
      </trkpt>
      <trkpt lat="49.87638" lon="1.12809">
        <ele>58.933353</ele>
        <time>2011-03-20T09:04:39Z</time>
      </trkpt>
      <trkpt lat="49.87722" lon="1.12792">
        <ele>46.062126</ele>
        <time>2011-03-20T09:04:53Z</time>
      </trkpt>
      <trkpt lat="49.87765" lon="1.12759">
        <ele>43.631489</ele>
        <time>2011-03-20T09:05:08Z</time>
      </trkpt>
      <trkpt lat="49.878" lon="1.12709">
        <ele>44.687233</ele>
        <time>2011-03-20T09:05:22Z</time>
      </trkpt>
      <trkpt lat="49.87828" lon="1.12653">
        <ele>46.86758</ele>
        <time>2011-03-20T09:05:36Z</time>
      </trkpt>
      <trkpt lat="49.87844" lon="1.12602">
        <ele>49.343967</ele>
        <time>2011-03-20T09:05:50Z</time>
      </trkpt>
      <trkpt lat="49.87875" lon="1.12556">
        <ele>45.989651</ele>
        <time>2011-03-20T09:06:04Z</time>
      </trkpt>
      <trkpt lat="49.879" lon="1.12528">
        <ele>42.808502</ele>
        <time>2011-03-20T09:06:18Z</time>
      </trkpt>
      <trkpt lat="49.87921" lon="1.12529">
        <ele>39.105751</ele>
        <time>2011-03-20T09:06:32Z</time>
      </trkpt>
      <trkpt lat="49.87927" lon="1.12534">
        <ele>38.084061</ele>
        <time>2011-03-20T09:09:05Z</time>
      </trkpt>
      <trkpt lat="49.87984" lon="1.12585">
        <ele>27.418781</ele>
        <time>2011-03-20T09:09:19Z</time>
      </trkpt>
      <trkpt lat="49.88034" lon="1.12547">
        <ele>23.432751</ele>
        <time>2011-03-20T09:09:33Z</time>
      </trkpt>
      <trkpt lat="49.88089" lon="1.1257">
        <ele>18.79125</ele>
        <time>2011-03-20T09:09:47Z</time>
      </trkpt>
      <trkpt lat="49.8812" lon="1.12587">
        <ele>15.986781</ele>
        <time>2011-03-20T09:10:01Z</time>
      </trkpt>
      <trkpt lat="49.88177" lon="1.12621">
        <ele>12.72</ele>
        <time>2011-03-20T09:10:15Z</time>
      </trkpt>
      <trkpt lat="49.88242" lon="1.12595">
        <ele>11.37066</ele>
        <time>2011-03-20T09:10:29Z</time>
      </trkpt>
      <trkpt lat="49.88315" lon="1.12575">
        <ele>8.552847</ele>
        <time>2011-03-20T09:10:43Z</time>
      </trkpt>
      <trkpt lat="49.8839" lon="1.12542">
        <ele>7.091187</ele>
        <time>2011-03-20T09:10:57Z</time>
      </trkpt>
      <trkpt lat="49.8842" lon="1.12529">
        <ele>6.9425</ele>
        <time>2011-03-20T09:11:11Z</time>
      </trkpt>
      <trkpt lat="49.88429" lon="1.12528">
        <ele>6.819319</ele>
        <time>2011-03-20T09:11:33Z</time>
      </trkpt>
      <trkpt lat="49.88482" lon="1.12482">
        <ele>5.92</ele>
        <time>2011-03-20T09:11:47Z</time>
      </trkpt>
      <trkpt lat="49.88553" lon="1.12393">
        <ele>4.965</ele>
        <time>2011-03-20T09:12:01Z</time>
      </trkpt>
      <trkpt lat="49.88628" lon="1.12302">
        <ele>4.913125</ele>
        <time>2011-03-20T09:12:15Z</time>
      </trkpt>
      <trkpt lat="49.88705" lon="1.1221">
        <ele>5.22375</ele>
        <time>2011-03-20T09:12:29Z</time>
      </trkpt>
      <trkpt lat="49.88769" lon="1.12134">
        <ele>5.582188</ele>
        <time>2011-03-20T09:12:43Z</time>
      </trkpt>
      <trkpt lat="49.88828" lon="1.12065">
        <ele>5.06255</ele>
        <time>2011-03-20T09:12:57Z</time>
      </trkpt>
      <trkpt lat="49.88894" lon="1.11995">
        <ele>4.396488</ele>
        <time>2011-03-20T09:13:11Z</time>
      </trkpt>
      <trkpt lat="49.88963" lon="1.11929">
        <ele>4.42625</ele>
        <time>2011-03-20T09:13:25Z</time>
      </trkpt>
      <trkpt lat="49.89029" lon="1.1187">
        <ele>3.60675</ele>
        <time>2011-03-20T09:13:39Z</time>
      </trkpt>
      <trkpt lat="49.8909" lon="1.11822">
        <ele>3.976631</ele>
        <time>2011-03-20T09:13:53Z</time>
      </trkpt>
      <trkpt lat="49.8915" lon="1.11787">
        <ele>4.326875</ele>
        <time>2011-03-20T09:14:07Z</time>
      </trkpt>
      <trkpt lat="49.89174" lon="1.117">
        <ele>7.771125</ele>
        <time>2011-03-20T09:14:21Z</time>
      </trkpt>
      <trkpt lat="49.89245" lon="1.1165">
        <ele>7.346912</ele>
        <time>2011-03-20T09:14:35Z</time>
      </trkpt>
      <trkpt lat="49.89315" lon="1.11608">
        <ele>6.935025</ele>
        <time>2011-03-20T09:14:49Z</time>
      </trkpt>
      <trkpt lat="49.89377" lon="1.11538">
        <ele>6.5705</ele>
        <time>2011-03-20T09:15:03Z</time>
      </trkpt>
      <trkpt lat="49.8943" lon="1.11449">
        <ele>7.950438</ele>
        <time>2011-03-20T09:15:17Z</time>
      </trkpt>
      <trkpt lat="49.89479" lon="1.11358">
        <ele>8.553725</ele>
        <time>2011-03-20T09:15:31Z</time>
      </trkpt>
      <trkpt lat="49.89535" lon="1.11259">
        <ele>8.533681</ele>
        <time>2011-03-20T09:15:45Z</time>
      </trkpt>
      <trkpt lat="49.89586" lon="1.11173">
        <ele>7.804225</ele>
        <time>2011-03-20T09:15:59Z</time>
      </trkpt>
      <trkpt lat="49.8962" lon="1.11108">
        <ele>7.699494</ele>
        <time>2011-03-20T09:16:13Z</time>
      </trkpt>
      <trkpt lat="49.89662" lon="1.11013">
        <ele>7.199062</ele>
        <time>2011-03-20T09:16:27Z</time>
      </trkpt>
      <trkpt lat="49.89705" lon="1.10905">
        <ele>7.500131</ele>
        <time>2011-03-20T09:16:41Z</time>
      </trkpt>
      <trkpt lat="49.89743" lon="1.10788">
        <ele>8.139859</ele>
        <time>2011-03-20T09:16:55Z</time>
      </trkpt>
      <trkpt lat="49.89784" lon="1.10675">
        <ele>8.3975</ele>
        <time>2011-03-20T09:17:09Z</time>
      </trkpt>
      <trkpt lat="49.89838" lon="1.10583">
        <ele>6.63555</ele>
        <time>2011-03-20T09:17:23Z</time>
      </trkpt>
      <trkpt lat="49.89876" lon="1.10521">
        <ele>5.710459</ele>
        <time>2011-03-20T09:17:37Z</time>
      </trkpt>
      <trkpt lat="49.89854" lon="1.10489">
        <ele>7.580822</ele>
        <time>2011-03-20T09:17:51Z</time>
      </trkpt>
      <trkpt lat="49.89833" lon="1.10461">
        <ele>10.09125</ele>
        <time>2011-03-20T09:18:05Z</time>
      </trkpt>
      <trkpt lat="49.89826" lon="1.10454">
        <ele>11.105587</ele>
        <time>2011-03-20T09:18:35Z</time>
      </trkpt>
      <trkpt lat="49.89799" lon="1.10431">
        <ele>14.151875</ele>
        <time>2011-03-20T09:18:49Z</time>
      </trkpt>
      <trkpt lat="49.89769" lon="1.10411">
        <ele>16.539875</ele>
        <time>2011-03-20T09:19:03Z</time>
      </trkpt>
      <trkpt lat="49.89749" lon="1.10398">
        <ele>17.929913</ele>
        <time>2011-03-20T09:19:17Z</time>
      </trkpt>
      <trkpt lat="49.89742" lon="1.104">
        <ele>18.64756</ele>
        <time>2011-03-20T09:19:41Z</time>
      </trkpt>
      <trkpt lat="49.89715" lon="1.10388">
        <ele>21.159719</ele>
        <time>2011-03-20T09:19:55Z</time>
      </trkpt>
      <trkpt lat="49.89687" lon="1.10386">
        <ele>24.511484</ele>
        <time>2011-03-20T09:20:09Z</time>
      </trkpt>
      <trkpt lat="49.89662" lon="1.10384">
        <ele>27.232325</ele>
        <time>2011-03-20T09:20:23Z</time>
      </trkpt>
      <trkpt lat="49.89641" lon="1.10358">
        <ele>27.44356</ele>
        <time>2011-03-20T09:20:37Z</time>
      </trkpt>
      <trkpt lat="49.89622" lon="1.10334">
        <ele>26.76815</ele>
        <time>2011-03-20T09:20:51Z</time>
      </trkpt>
      <trkpt lat="49.89602" lon="1.10312">
        <ele>28.787676</ele>
        <time>2011-03-20T09:21:05Z</time>
      </trkpt>
      <trkpt lat="49.89582" lon="1.10289">
        <ele>31.616882</ele>
        <time>2011-03-20T09:21:19Z</time>
      </trkpt>
      <trkpt lat="49.89562" lon="1.10268">
        <ele>34.700775</ele>
        <time>2011-03-20T09:21:33Z</time>
      </trkpt>
      <trkpt lat="49.89545" lon="1.10256">
        <ele>37.659061</ele>
        <time>2011-03-20T09:21:47Z</time>
      </trkpt>
      <trkpt lat="49.89527" lon="1.10253">
        <ele>39.935406</ele>
        <time>2011-03-20T09:22:01Z</time>
      </trkpt>
      <trkpt lat="49.8951" lon="1.10253">
        <ele>41.575005</ele>
        <time>2011-03-20T09:22:15Z</time>
      </trkpt>
      <trkpt lat="49.89491" lon="1.10252">
        <ele>43.498672</ele>
        <time>2011-03-20T09:22:29Z</time>
      </trkpt>
      <trkpt lat="49.89469" lon="1.10255">
        <ele>44.885796</ele>
        <time>2011-03-20T09:22:43Z</time>
      </trkpt>
      <trkpt lat="49.89448" lon="1.10261">
        <ele>45.729187</ele>
        <time>2011-03-20T09:22:57Z</time>
      </trkpt>
      <trkpt lat="49.8943" lon="1.10264">
        <ele>46.9925</ele>
        <time>2011-03-20T09:23:11Z</time>
      </trkpt>
      <trkpt lat="49.89412" lon="1.1026">
        <ele>49.260002</ele>
        <time>2011-03-20T09:23:25Z</time>
      </trkpt>
      <trkpt lat="49.89388" lon="1.10252">
        <ele>53.255001</ele>
        <time>2011-03-20T09:23:39Z</time>
      </trkpt>
      <trkpt lat="49.89366" lon="1.10246">
        <ele>56.264999</ele>
        <time>2011-03-20T09:23:53Z</time>
      </trkpt>
      <trkpt lat="49.89329" lon="1.10241">
        <ele>59.76413</ele>
        <time>2011-03-20T09:24:07Z</time>
      </trkpt>
      <trkpt lat="49.89304" lon="1.10232">
        <ele>63.051105</ele>
        <time>2011-03-20T09:24:21Z</time>
      </trkpt>
      <trkpt lat="49.89282" lon="1.10217">
        <ele>66.60495</ele>
        <time>2011-03-20T09:24:35Z</time>
      </trkpt>
      <trkpt lat="49.8926" lon="1.10198">
        <ele>70.416534</ele>
        <time>2011-03-20T09:24:49Z</time>
      </trkpt>
      <trkpt lat="49.89238" lon="1.10183">
        <ele>71.407547</ele>
        <time>2011-03-20T09:25:03Z</time>
      </trkpt>
      <trkpt lat="49.89209" lon="1.10168">
        <ele>72.301003</ele>
        <time>2011-03-20T09:25:17Z</time>
      </trkpt>
      <trkpt lat="49.89183" lon="1.10155">
        <ele>73.903183</ele>
        <time>2011-03-20T09:25:31Z</time>
      </trkpt>
      <trkpt lat="49.89152" lon="1.1015">
        <ele>74.252304</ele>
        <time>2011-03-20T09:25:45Z</time>
      </trkpt>
      <trkpt lat="49.8913" lon="1.10124">
        <ele>78.527977</ele>
        <time>2011-03-20T09:25:59Z</time>
      </trkpt>
      <trkpt lat="49.89117" lon="1.10096">
        <ele>80.996246</ele>
        <time>2011-03-20T09:26:13Z</time>
      </trkpt>
      <trkpt lat="49.89102" lon="1.1006">
        <ele>84.019997</ele>
        <time>2011-03-20T09:26:27Z</time>
      </trkpt>
      <trkpt lat="49.89087" lon="1.1002">
        <ele>84.595001</ele>
        <time>2011-03-20T09:26:41Z</time>
      </trkpt>
      <trkpt lat="49.89071" lon="1.09983">
        <ele>85.262497</ele>
        <time>2011-03-20T09:26:55Z</time>
      </trkpt>
      <trkpt lat="49.89057" lon="1.09948">
        <ele>86.277496</ele>
        <time>2011-03-20T09:27:09Z</time>
      </trkpt>
      <trkpt lat="49.89035" lon="1.09908">
        <ele>87.231873</ele>
        <time>2011-03-20T09:27:23Z</time>
      </trkpt>
      <trkpt lat="49.89012" lon="1.09862">
        <ele>87.894997</ele>
        <time>2011-03-20T09:27:37Z</time>
      </trkpt>
      <trkpt lat="49.88985" lon="1.09815">
        <ele>88.58625</ele>
        <time>2011-03-20T09:27:51Z</time>
      </trkpt>
      <trkpt lat="49.8896" lon="1.09767">
        <ele>89.187447</ele>
        <time>2011-03-20T09:28:05Z</time>
      </trkpt>
      <trkpt lat="49.88933" lon="1.0972">
        <ele>89.974373</ele>
        <time>2011-03-20T09:28:19Z</time>
      </trkpt>
      <trkpt lat="49.88906" lon="1.0967">
        <ele>90.582413</ele>
        <time>2011-03-20T09:28:33Z</time>
      </trkpt>
      <trkpt lat="49.88879" lon="1.09624">
        <ele>91.43</ele>
        <time>2011-03-20T09:28:47Z</time>
      </trkpt>
      <trkpt lat="49.88854" lon="1.09579">
        <ele>91.980003</ele>
        <time>2011-03-20T09:29:01Z</time>
      </trkpt>
      <trkpt lat="49.88837" lon="1.09548">
        <ele>92.355003</ele>
        <time>2011-03-20T09:29:15Z</time>
      </trkpt>
      <trkpt lat="49.88831" lon="1.09533">
        <ele>92.485001</ele>
        <time>2011-03-20T09:29:29Z</time>
      </trkpt>
      <trkpt lat="49.88828" lon="1.09546">
        <ele>92.559998</ele>
        <time>2011-03-20T09:29:52Z</time>
      </trkpt>
      <trkpt lat="49.88838" lon="1.09539">
        <ele>92.324997</ele>
        <time>2011-03-20T09:30:06Z</time>
      </trkpt>
      <trkpt lat="49.88832" lon="1.09549">
        <ele>92.470001</ele>
        <time>2011-03-20T09:33:28Z</time>
      </trkpt>
      <trkpt lat="49.88839" lon="1.09549">
        <ele>92.294998</ele>
        <time>2011-03-20T09:34:43Z</time>
      </trkpt>
      <trkpt lat="49.88872" lon="1.09504">
        <ele>91.565002</ele>
        <time>2011-03-20T09:34:57Z</time>
      </trkpt>
      <trkpt lat="49.88939" lon="1.09482">
        <ele>90.638466</ele>
        <time>2011-03-20T09:35:11Z</time>
      </trkpt>
      <trkpt lat="49.89007" lon="1.09462">
        <ele>89.550003</ele>
        <time>2011-03-20T09:35:25Z</time>
      </trkpt>
      <trkpt lat="49.89075" lon="1.09451">
        <ele>89</ele>
        <time>2011-03-20T09:35:39Z</time>
      </trkpt>
      <trkpt lat="49.89141" lon="1.09443">
        <ele>88.064751</ele>
        <time>2011-03-20T09:35:53Z</time>
      </trkpt>
      <trkpt lat="49.89208" lon="1.0944">
        <ele>88</ele>
        <time>2011-03-20T09:36:07Z</time>
      </trkpt>
      <trkpt lat="49.89276" lon="1.09442">
        <ele>86.540001</ele>
        <time>2011-03-20T09:36:21Z</time>
      </trkpt>
      <trkpt lat="49.89345" lon="1.09433">
        <ele>85.958755</ele>
        <time>2011-03-20T09:36:35Z</time>
      </trkpt>
      <trkpt lat="49.89408" lon="1.09423">
        <ele>86</ele>
        <time>2011-03-20T09:36:49Z</time>
      </trkpt>
      <trkpt lat="49.89459" lon="1.09411">
        <ele>85.470001</ele>
        <time>2011-03-20T09:37:03Z</time>
      </trkpt>
      <trkpt lat="49.89527" lon="1.094">
        <ele>83.965347</ele>
        <time>2011-03-20T09:37:17Z</time>
      </trkpt>
      <trkpt lat="49.89596" lon="1.09389">
        <ele>82.91375</ele>
        <time>2011-03-20T09:37:31Z</time>
      </trkpt>
      <trkpt lat="49.8967" lon="1.09378">
        <ele>80.860001</ele>
        <time>2011-03-20T09:37:45Z</time>
      </trkpt>
      <trkpt lat="49.8975" lon="1.09373">
        <ele>77.634872</ele>
        <time>2011-03-20T09:37:59Z</time>
      </trkpt>
      <trkpt lat="49.89838" lon="1.09349">
        <ele>73.024323</ele>
        <time>2011-03-20T09:38:13Z</time>
      </trkpt>
      <trkpt lat="49.89952" lon="1.09279">
        <ele>65.957497</ele>
        <time>2011-03-20T09:38:27Z</time>
      </trkpt>
      <trkpt lat="49.90075" lon="1.09223">
        <ele>53.07795</ele>
        <time>2011-03-20T09:38:41Z</time>
      </trkpt>
      <trkpt lat="49.90189" lon="1.09235">
        <ele>42.161499</ele>
        <time>2011-03-20T09:38:55Z</time>
      </trkpt>
      <trkpt lat="49.90306" lon="1.09226">
        <ele>19.408825</ele>
        <time>2011-03-20T09:39:09Z</time>
      </trkpt>
      <trkpt lat="49.90321" lon="1.09232">
        <ele>17.005713</ele>
        <time>2011-03-20T09:39:23Z</time>
      </trkpt>
      <trkpt lat="49.90334" lon="1.09238">
        <ele>15.14125</ele>
        <time>2011-03-20T09:39:33Z</time>
      </trkpt>
      <trkpt lat="49.90362" lon="1.09249">
        <ele>11.813125</ele>
        <time>2011-03-20T09:39:47Z</time>
      </trkpt>
      <trkpt lat="49.90396" lon="1.09303">
        <ele>8.17875</ele>
        <time>2011-03-20T09:40:01Z</time>
      </trkpt>
      <trkpt lat="49.90421" lon="1.09318">
        <ele>6.24375</ele>
        <time>2011-03-20T09:40:15Z</time>
      </trkpt>
      <trkpt lat="49.90448" lon="1.09317">
        <ele>5.221175</ele>
        <time>2011-03-20T09:40:29Z</time>
      </trkpt>
      <trkpt lat="49.90468" lon="1.09293">
        <ele>5.1275</ele>
        <time>2011-03-20T09:40:43Z</time>
      </trkpt>
      <trkpt lat="49.9053" lon="1.09236">
        <ele>5.162675</ele>
        <time>2011-03-20T09:40:57Z</time>
      </trkpt>
      <trkpt lat="49.90585" lon="1.09177">
        <ele>4.609675</ele>
        <time>2011-03-20T09:41:11Z</time>
      </trkpt>
      <trkpt lat="49.90635" lon="1.09099">
        <ele>4.6109</ele>
        <time>2011-03-20T09:41:25Z</time>
      </trkpt>
      <trkpt lat="49.90672" lon="1.09049">
        <ele>4.374731</ele>
        <time>2011-03-20T09:41:39Z</time>
      </trkpt>
      <trkpt lat="49.90674" lon="1.09038">
        <ele>4.569644</ele>
        <time>2011-03-20T09:42:02Z</time>
      </trkpt>
      <trkpt lat="49.90674" lon="1.09004">
        <ele>5.361563</ele>
        <time>2011-03-20T09:42:30Z</time>
      </trkpt>
      <trkpt lat="49.90667" lon="1.08999">
        <ele>5.882563</ele>
        <time>2011-03-20T09:43:20Z</time>
      </trkpt>
      <trkpt lat="49.90646" lon="1.08977">
        <ele>7.983515</ele>
        <time>2011-03-20T09:43:34Z</time>
      </trkpt>
      <trkpt lat="49.90625" lon="1.08944">
        <ele>10.898737</ele>
        <time>2011-03-20T09:43:49Z</time>
      </trkpt>
      <trkpt lat="49.90604" lon="1.08915">
        <ele>12.7634</ele>
        <time>2011-03-20T09:44:03Z</time>
      </trkpt>
      <trkpt lat="49.90582" lon="1.08882">
        <ele>17.3508</ele>
        <time>2011-03-20T09:44:17Z</time>
      </trkpt>
      <trkpt lat="49.9056" lon="1.0885">
        <ele>19.237499</ele>
        <time>2011-03-20T09:44:31Z</time>
      </trkpt>
      <trkpt lat="49.9054" lon="1.08822">
        <ele>23.610575</ele>
        <time>2011-03-20T09:44:45Z</time>
      </trkpt>
      <trkpt lat="49.9052" lon="1.08791">
        <ele>26.64455</ele>
        <time>2011-03-20T09:44:59Z</time>
      </trkpt>
      <trkpt lat="49.905" lon="1.0876">
        <ele>28.8416</ele>
        <time>2011-03-20T09:45:13Z</time>
      </trkpt>
      <trkpt lat="49.90481" lon="1.08729">
        <ele>32.954155</ele>
        <time>2011-03-20T09:45:27Z</time>
      </trkpt>
      <trkpt lat="49.90463" lon="1.08699">
        <ele>33.993999</ele>
        <time>2011-03-20T09:45:41Z</time>
      </trkpt>
      <trkpt lat="49.90454" lon="1.08669">
        <ele>37.955486</ele>
        <time>2011-03-20T09:45:55Z</time>
      </trkpt>
      <trkpt lat="49.90456" lon="1.08639">
        <ele>40.374626</ele>
        <time>2011-03-20T09:46:09Z</time>
      </trkpt>
      <trkpt lat="49.90459" lon="1.08616">
        <ele>42.851875</ele>
        <time>2011-03-20T09:46:23Z</time>
      </trkpt>
      <trkpt lat="49.90484" lon="1.08628">
        <ele>45.456814</ele>
        <time>2011-03-20T09:46:37Z</time>
      </trkpt>
      <trkpt lat="49.90497" lon="1.08637">
        <ele>46.652275</ele>
        <time>2011-03-20T09:46:51Z</time>
      </trkpt>
      <trkpt lat="49.90504" lon="1.08636">
        <ele>47.990086</ele>
        <time>2011-03-20T09:47:18Z</time>
      </trkpt>
      <trkpt lat="49.90529" lon="1.0869">
        <ele>42.51965</ele>
        <time>2011-03-20T09:47:32Z</time>
      </trkpt>
      <trkpt lat="49.90562" lon="1.08719">
        <ele>42.631001</ele>
        <time>2011-03-20T09:47:46Z</time>
      </trkpt>
      <trkpt lat="49.90598" lon="1.08729">
        <ele>44.685001</ele>
        <time>2011-03-20T09:48:00Z</time>
      </trkpt>
      <trkpt lat="49.90631" lon="1.08716">
        <ele>46</ele>
        <time>2011-03-20T09:48:14Z</time>
      </trkpt>
      <trkpt lat="49.90659" lon="1.08741">
        <ele>38.390533</ele>
        <time>2011-03-20T09:48:28Z</time>
      </trkpt>
      <trkpt lat="49.90705" lon="1.08733">
        <ele>31.93836</ele>
        <time>2011-03-20T09:48:42Z</time>
      </trkpt>
      <trkpt lat="49.9074" lon="1.08718">
        <ele>27.580204</ele>
        <time>2011-03-20T09:48:56Z</time>
      </trkpt>
      <trkpt lat="49.90756" lon="1.08715">
        <ele>24.578625</ele>
        <time>2011-03-20T09:49:10Z</time>
      </trkpt>
      <trkpt lat="49.9081" lon="1.08677">
        <ele>18.0725</ele>
        <time>2011-03-20T09:49:24Z</time>
      </trkpt>
      <trkpt lat="49.90841" lon="1.08632">
        <ele>17.249706</ele>
        <time>2011-03-20T09:49:38Z</time>
      </trkpt>
      <trkpt lat="49.9086" lon="1.08583">
        <ele>20.459213</ele>
        <time>2011-03-20T09:49:52Z</time>
      </trkpt>
      <trkpt lat="49.90868" lon="1.08542">
        <ele>24.093094</ele>
        <time>2011-03-20T09:50:06Z</time>
      </trkpt>
      <trkpt lat="49.90868" lon="1.08542">
        <ele>24.093094</ele>
        <time>2011-03-20T09:50:24Z</time>
      </trkpt>
      <trkpt lat="49.90873" lon="1.08486">
        <ele>27.8519</ele>
        <time>2011-03-20T09:50:38Z</time>
      </trkpt>
      <trkpt lat="49.90872" lon="1.08474">
        <ele>27.171049</ele>
        <time>2011-03-20T09:51:35Z</time>
      </trkpt>
      <trkpt lat="49.90848" lon="1.08449">
        <ele>31.381657</ele>
        <time>2011-03-20T09:51:49Z</time>
      </trkpt>
      <trkpt lat="49.90818" lon="1.08437">
        <ele>37.252151</ele>
        <time>2011-03-20T09:52:03Z</time>
      </trkpt>
      <trkpt lat="49.90793" lon="1.08408">
        <ele>39.165001</ele>
        <time>2011-03-20T09:52:17Z</time>
      </trkpt>
      <trkpt lat="49.90768" lon="1.08387">
        <ele>41.663776</ele>
        <time>2011-03-20T09:52:31Z</time>
      </trkpt>
      <trkpt lat="49.90741" lon="1.08375">
        <ele>45.97855</ele>
        <time>2011-03-20T09:52:45Z</time>
      </trkpt>
      <trkpt lat="49.9074" lon="1.08338">
        <ele>45.414848</ele>
        <time>2011-03-20T09:52:59Z</time>
      </trkpt>
      <trkpt lat="49.90752" lon="1.08321">
        <ele>42.76865</ele>
        <time>2011-03-20T09:53:13Z</time>
      </trkpt>
      <trkpt lat="49.90752" lon="1.08307">
        <ele>43.162914</ele>
        <time>2011-03-20T09:54:38Z</time>
      </trkpt>
      <trkpt lat="49.90754" lon="1.08295">
        <ele>42.895451</ele>
        <time>2011-03-20T09:55:00Z</time>
      </trkpt>
      <trkpt lat="49.90762" lon="1.08263">
        <ele>41.215439</ele>
        <time>2011-03-20T09:55:14Z</time>
      </trkpt>
      <trkpt lat="49.90756" lon="1.08219">
        <ele>44.904999</ele>
        <time>2011-03-20T09:55:28Z</time>
      </trkpt>
      <trkpt lat="49.90751" lon="1.0818">
        <ele>47.187</ele>
        <time>2011-03-20T09:55:42Z</time>
      </trkpt>
      <trkpt lat="49.90735" lon="1.08155">
        <ele>52.539219</ele>
        <time>2011-03-20T09:55:56Z</time>
      </trkpt>
      <trkpt lat="49.90723" lon="1.08109">
        <ele>54.483746</ele>
        <time>2011-03-20T09:56:10Z</time>
      </trkpt>
      <trkpt lat="49.90705" lon="1.0807">
        <ele>55.305389</ele>
        <time>2011-03-20T09:56:24Z</time>
      </trkpt>
      <trkpt lat="49.90684" lon="1.08035">
        <ele>57.524605</ele>
        <time>2011-03-20T09:56:38Z</time>
      </trkpt>
      <trkpt lat="49.90669" lon="1.08001">
        <ele>58.932186</ele>
        <time>2011-03-20T09:56:52Z</time>
      </trkpt>
      <trkpt lat="49.90695" lon="1.07933">
        <ele>57.861874</ele>
        <time>2011-03-20T09:57:06Z</time>
      </trkpt>
      <trkpt lat="49.90729" lon="1.0794">
        <ele>57.094288</ele>
        <time>2011-03-20T09:57:20Z</time>
      </trkpt>
      <trkpt lat="49.90761" lon="1.07976">
        <ele>55.058456</ele>
        <time>2011-03-20T09:57:34Z</time>
      </trkpt>
      <trkpt lat="49.90811" lon="1.08053">
        <ele>48.893375</ele>
        <time>2011-03-20T09:57:48Z</time>
      </trkpt>
      <trkpt lat="49.90841" lon="1.08107">
        <ele>46.49625</ele>
        <time>2011-03-20T09:58:02Z</time>
      </trkpt>
      <trkpt lat="49.9087" lon="1.08157">
        <ele>44.892693</ele>
        <time>2011-03-20T09:58:16Z</time>
      </trkpt>
      <trkpt lat="49.90903" lon="1.08218">
        <ele>42.325474</ele>
        <time>2011-03-20T09:58:30Z</time>
      </trkpt>
      <trkpt lat="49.90942" lon="1.08242">
        <ele>42.767456</ele>
        <time>2011-03-20T09:58:44Z</time>
      </trkpt>
      <trkpt lat="49.90988" lon="1.08252">
        <ele>42.875</ele>
        <time>2011-03-20T09:58:58Z</time>
      </trkpt>
      <trkpt lat="49.91013" lon="1.08288">
        <ele>34.956032</ele>
        <time>2011-03-20T09:59:12Z</time>
      </trkpt>
      <trkpt lat="49.91048" lon="1.08348">
        <ele>21.695406</ele>
        <time>2011-03-20T09:59:26Z</time>
      </trkpt>
      <trkpt lat="49.91097" lon="1.08366">
        <ele>13.420625</ele>
        <time>2011-03-20T09:59:40Z</time>
      </trkpt>
      <trkpt lat="49.91051" lon="1.0846">
        <ele>6.598366</ele>
        <time>2011-03-20T09:59:54Z</time>
      </trkpt>
      <trkpt lat="49.91037" lon="1.08479">
        <ele>5.6875</ele>
        <time>2011-03-20T10:00:08Z</time>
      </trkpt>
      <trkpt lat="49.91037" lon="1.08479">
        <ele>5.6875</ele>
        <time>2011-03-20T10:01:20Z</time>
      </trkpt>
      <trkpt lat="49.91014" lon="1.08538">
        <ele>4.26535</ele>
        <time>2011-03-20T10:01:34Z</time>
      </trkpt>
      <trkpt lat="49.91008" lon="1.08528">
        <ele>4.841644</ele>
        <time>2011-03-20T10:03:04Z</time>
      </trkpt>
      <trkpt lat="49.91041" lon="1.085">
        <ele>4.579187</ele>
        <time>2011-03-20T10:03:18Z</time>
      </trkpt>
      <trkpt lat="49.91101" lon="1.08437">
        <ele>5.629056</ele>
        <time>2011-03-20T10:03:32Z</time>
      </trkpt>
      <trkpt lat="49.91168" lon="1.08368">
        <ele>6.3813</ele>
        <time>2011-03-20T10:03:46Z</time>
      </trkpt>
      <trkpt lat="49.91241" lon="1.08295">
        <ele>6.977075</ele>
        <time>2011-03-20T10:04:00Z</time>
      </trkpt>
      <trkpt lat="49.91312" lon="1.08223">
        <ele>7.280656</ele>
        <time>2011-03-20T10:04:14Z</time>
      </trkpt>
      <trkpt lat="49.91367" lon="1.0829">
        <ele>6</ele>
        <time>2011-03-20T10:04:28Z</time>
      </trkpt>
      <trkpt lat="49.91421" lon="1.08384">
        <ele>5.163638</ele>
        <time>2011-03-20T10:04:42Z</time>
      </trkpt>
      <trkpt lat="49.91473" lon="1.08483">
        <ele>4.385</ele>
        <time>2011-03-20T10:04:56Z</time>
      </trkpt>
      <trkpt lat="49.91528" lon="1.08585">
        <ele>4.121265</ele>
        <time>2011-03-20T10:05:10Z</time>
      </trkpt>
      <trkpt lat="49.91583" lon="1.0869">
        <ele>4.838512</ele>
        <time>2011-03-20T10:05:24Z</time>
      </trkpt>
      <trkpt lat="49.91639" lon="1.08794">
        <ele>4</ele>
        <time>2011-03-20T10:05:38Z</time>
      </trkpt>
      <trkpt lat="49.91678" lon="1.08867">
        <ele>4</ele>
        <time>2011-03-20T10:05:52Z</time>
      </trkpt>
      <trkpt lat="49.91682" lon="1.08877">
        <ele>4</ele>
        <time>2011-03-20T10:06:10Z</time>
      </trkpt>
      <trkpt lat="49.91717" lon="1.08941">
        <ele>4.811875</ele>
        <time>2011-03-20T10:06:24Z</time>
      </trkpt>
      <trkpt lat="49.91764" lon="1.09029">
        <ele>6.003825</ele>
        <time>2011-03-20T10:06:38Z</time>
      </trkpt>
      <trkpt lat="49.91771" lon="1.09098">
        <ele>5.158872</ele>
        <time>2011-03-20T10:06:52Z</time>
      </trkpt>
      <trkpt lat="49.91762" lon="1.09193">
        <ele>0.93955</ele>
        <time>2011-03-20T10:07:06Z</time>
      </trkpt>
      <trkpt lat="49.91726" lon="1.09268">
        <ele>0.458734</ele>
        <time>2011-03-20T10:07:20Z</time>
      </trkpt>
      <trkpt lat="49.9167" lon="1.09293">
        <ele>1.866625</ele>
        <time>2011-03-20T10:07:34Z</time>
      </trkpt>
      <trkpt lat="49.91615" lon="1.09315">
        <ele>4.832719</ele>
        <time>2011-03-20T10:07:48Z</time>
      </trkpt>
      <trkpt lat="49.9157" lon="1.0938">
        <ele>4.279497</ele>
        <time>2011-03-20T10:08:02Z</time>
      </trkpt>
      <trkpt lat="49.91545" lon="1.0946">
        <ele>3</ele>
        <time>2011-03-20T10:08:16Z</time>
      </trkpt>
      <trkpt lat="49.91543" lon="1.09554">
        <ele>4.155625</ele>
        <time>2011-03-20T10:08:30Z</time>
      </trkpt>
      <trkpt lat="49.91582" lon="1.09633">
        <ele>4.95125</ele>
        <time>2011-03-20T10:08:44Z</time>
      </trkpt>
      <trkpt lat="49.91617" lon="1.09713">
        <ele>5.79949</ele>
        <time>2011-03-20T10:08:58Z</time>
      </trkpt>
      <trkpt lat="49.91652" lon="1.09776">
        <ele>9.716713</ele>
        <time>2011-03-20T10:09:12Z</time>
      </trkpt>
      <trkpt lat="49.91601" lon="1.09835">
        <ele>12.036799</ele>
        <time>2011-03-20T10:09:26Z</time>
      </trkpt>
      <trkpt lat="49.91527" lon="1.09901">
        <ele>10.979894</ele>
        <time>2011-03-20T10:09:40Z</time>
      </trkpt>
      <trkpt lat="49.91456" lon="1.09968">
        <ele>10.997937</ele>
        <time>2011-03-20T10:09:54Z</time>
      </trkpt>
      <trkpt lat="49.91384" lon="1.10036">
        <ele>8.4069</ele>
        <time>2011-03-20T10:10:08Z</time>
      </trkpt>
      <trkpt lat="49.91317" lon="1.10113">
        <ele>7.7349</ele>
        <time>2011-03-20T10:10:22Z</time>
      </trkpt>
      <trkpt lat="49.91252" lon="1.10209">
        <ele>7.077</ele>
        <time>2011-03-20T10:10:36Z</time>
      </trkpt>
      <trkpt lat="49.91193" lon="1.10309">
        <ele>6.678125</ele>
        <time>2011-03-20T10:10:50Z</time>
      </trkpt>
      <trkpt lat="49.91132" lon="1.10415">
        <ele>6.714625</ele>
        <time>2011-03-20T10:11:04Z</time>
      </trkpt>
      <trkpt lat="49.9107" lon="1.1052">
        <ele>6.7156</ele>
        <time>2011-03-20T10:11:18Z</time>
      </trkpt>
      <trkpt lat="49.91012" lon="1.10619">
        <ele>7.865094</ele>
        <time>2011-03-20T10:11:32Z</time>
      </trkpt>
      <trkpt lat="49.90952" lon="1.10715">
        <ele>7.715225</ele>
        <time>2011-03-20T10:11:46Z</time>
      </trkpt>
      <trkpt lat="49.90899" lon="1.10816">
        <ele>7.48555</ele>
        <time>2011-03-20T10:12:00Z</time>
      </trkpt>
      <trkpt lat="49.90849" lon="1.10922">
        <ele>8.880594</ele>
        <time>2011-03-20T10:12:14Z</time>
      </trkpt>
      <trkpt lat="49.90828" lon="1.10995">
        <ele>10.445</ele>
        <time>2011-03-20T10:12:28Z</time>
      </trkpt>
      <trkpt lat="49.90849" lon="1.11028">
        <ele>14.538594</ele>
        <time>2011-03-20T10:12:42Z</time>
      </trkpt>
      <trkpt lat="49.90866" lon="1.11062">
        <ele>19.494562</ele>
        <time>2011-03-20T10:12:56Z</time>
      </trkpt>
      <trkpt lat="49.90877" lon="1.11103">
        <ele>24.208652</ele>
        <time>2011-03-20T10:13:10Z</time>
      </trkpt>
      <trkpt lat="49.90886" lon="1.11134">
        <ele>27.720577</ele>
        <time>2011-03-20T10:13:24Z</time>
      </trkpt>
      <trkpt lat="49.90895" lon="1.11166">
        <ele>31.026001</ele>
        <time>2011-03-20T10:13:38Z</time>
      </trkpt>
      <trkpt lat="49.90903" lon="1.11198">
        <ele>33.684975</ele>
        <time>2011-03-20T10:13:52Z</time>
      </trkpt>
      <trkpt lat="49.90919" lon="1.11216">
        <ele>37.697544</ele>
        <time>2011-03-20T10:14:06Z</time>
      </trkpt>
      <trkpt lat="49.90939" lon="1.11233">
        <ele>41.684875</ele>
        <time>2011-03-20T10:14:20Z</time>
      </trkpt>
      <trkpt lat="49.90956" lon="1.11248">
        <ele>45.360001</ele>
        <time>2011-03-20T10:14:34Z</time>
      </trkpt>
      <trkpt lat="49.90969" lon="1.11261">
        <ele>47.538734</ele>
        <time>2011-03-20T10:14:48Z</time>
      </trkpt>
      <trkpt lat="49.90989" lon="1.11277">
        <ele>52.627937</ele>
        <time>2011-03-20T10:15:02Z</time>
      </trkpt>
      <trkpt lat="49.91009" lon="1.11292">
        <ele>58.331314</ele>
        <time>2011-03-20T10:15:16Z</time>
      </trkpt>
      <trkpt lat="49.91026" lon="1.11307">
        <ele>61.691998</ele>
        <time>2011-03-20T10:15:30Z</time>
      </trkpt>
      <trkpt lat="49.91042" lon="1.11322">
        <ele>64.851616</ele>
        <time>2011-03-20T10:15:44Z</time>
      </trkpt>
      <trkpt lat="49.91057" lon="1.11341">
        <ele>68.075996</ele>
        <time>2011-03-20T10:15:58Z</time>
      </trkpt>
      <trkpt lat="49.91072" lon="1.11365">
        <ele>71.056374</ele>
        <time>2011-03-20T10:16:12Z</time>
      </trkpt>
      <trkpt lat="49.91089" lon="1.11389">
        <ele>73.386734</ele>
        <time>2011-03-20T10:16:26Z</time>
      </trkpt>
      <trkpt lat="49.91105" lon="1.11413">
        <ele>75.442497</ele>
        <time>2011-03-20T10:16:41Z</time>
      </trkpt>
      <trkpt lat="49.91117" lon="1.11446">
        <ele>77.275604</ele>
        <time>2011-03-20T10:16:55Z</time>
      </trkpt>
      <trkpt lat="49.91126" lon="1.11469">
        <ele>78.559517</ele>
        <time>2011-03-20T10:17:09Z</time>
      </trkpt>
      <trkpt lat="49.91139" lon="1.11501">
        <ele>80.50602</ele>
        <time>2011-03-20T10:17:23Z</time>
      </trkpt>
      <trkpt lat="49.91144" lon="1.11531">
        <ele>81.856308</ele>
        <time>2011-03-20T10:17:37Z</time>
      </trkpt>
      <trkpt lat="49.91156" lon="1.11581">
        <ele>83.93222</ele>
        <time>2011-03-20T10:17:51Z</time>
      </trkpt>
      <trkpt lat="49.91179" lon="1.11656">
        <ele>86.019997</ele>
        <time>2011-03-20T10:18:05Z</time>
      </trkpt>
      <trkpt lat="49.91205" lon="1.11727">
        <ele>86.970963</ele>
        <time>2011-03-20T10:18:19Z</time>
      </trkpt>
      <trkpt lat="49.91233" lon="1.11788">
        <ele>87.796341</ele>
        <time>2011-03-20T10:18:33Z</time>
      </trkpt>
      <trkpt lat="49.91226" lon="1.11789">
        <ele>87.737564</ele>
        <time>2011-03-20T10:18:53Z</time>
      </trkpt>
      <trkpt lat="49.91211" lon="1.1174">
        <ele>87.0354</ele>
        <time>2011-03-20T10:19:07Z</time>
      </trkpt>
      <trkpt lat="49.91227" lon="1.11662">
        <ele>86.860878</ele>
        <time>2011-03-20T10:19:21Z</time>
      </trkpt>
      <trkpt lat="49.9127" lon="1.11574">
        <ele>86.711868</ele>
        <time>2011-03-20T10:19:35Z</time>
      </trkpt>
      <trkpt lat="49.91305" lon="1.1152">
        <ele>86.796249</ele>
        <time>2011-03-20T10:19:49Z</time>
      </trkpt>
      <trkpt lat="49.91353" lon="1.1145">
        <ele>86.822136</ele>
        <time>2011-03-20T10:20:03Z</time>
      </trkpt>
      <trkpt lat="49.91407" lon="1.11373">
        <ele>86.669373</ele>
        <time>2011-03-20T10:20:17Z</time>
      </trkpt>
      <trkpt lat="49.91452" lon="1.11307">
        <ele>85.743126</ele>
        <time>2011-03-20T10:20:31Z</time>
      </trkpt>
      <trkpt lat="49.91497" lon="1.11243">
        <ele>84.912453</ele>
        <time>2011-03-20T10:20:45Z</time>
      </trkpt>
      <trkpt lat="49.91539" lon="1.11183">
        <ele>83.995934</ele>
        <time>2011-03-20T10:20:59Z</time>
      </trkpt>
      <trkpt lat="49.91587" lon="1.11112">
        <ele>82.994499</ele>
        <time>2011-03-20T10:21:13Z</time>
      </trkpt>
      <trkpt lat="49.91628" lon="1.11053">
        <ele>82.142502</ele>
        <time>2011-03-20T10:21:27Z</time>
      </trkpt>
      <trkpt lat="49.91659" lon="1.11001">
        <ele>81.415627</ele>
        <time>2011-03-20T10:21:41Z</time>
      </trkpt>
      <trkpt lat="49.91691" lon="1.10925">
        <ele>80.328125</ele>
        <time>2011-03-20T10:21:55Z</time>
      </trkpt>
      <trkpt lat="49.91721" lon="1.10836">
        <ele>79.056877</ele>
        <time>2011-03-20T10:22:09Z</time>
      </trkpt>
      <trkpt lat="49.91754" lon="1.10735">
        <ele>77.276245</ele>
        <time>2011-03-20T10:22:23Z</time>
      </trkpt>
      <trkpt lat="49.91782" lon="1.10755">
        <ele>76.955627</ele>
        <time>2011-03-20T10:22:37Z</time>
      </trkpt>
      <trkpt lat="49.91817" lon="1.10821">
        <ele>77.875</ele>
        <time>2011-03-20T10:22:51Z</time>
      </trkpt>
      <trkpt lat="49.91853" lon="1.10911">
        <ele>79.18</ele>
        <time>2011-03-20T10:23:05Z</time>
      </trkpt>
      <trkpt lat="49.91887" lon="1.10996">
        <ele>80.416252</ele>
        <time>2011-03-20T10:23:19Z</time>
      </trkpt>
      <trkpt lat="49.91929" lon="1.11087">
        <ele>80.956894</ele>
        <time>2011-03-20T10:23:33Z</time>
      </trkpt>
      <trkpt lat="49.91968" lon="1.11175">
        <ele>80.970001</ele>
        <time>2011-03-20T10:23:47Z</time>
      </trkpt>
      <trkpt lat="49.92007" lon="1.11259">
        <ele>80.337189</ele>
        <time>2011-03-20T10:24:01Z</time>
      </trkpt>
      <trkpt lat="49.92054" lon="1.11341">
        <ele>81.433746</ele>
        <time>2011-03-20T10:24:15Z</time>
      </trkpt>
      <trkpt lat="49.92106" lon="1.11418">
        <ele>82</ele>
        <time>2011-03-20T10:24:29Z</time>
      </trkpt>
      <trkpt lat="49.92154" lon="1.11509">
        <ele>82.809975</ele>
        <time>2011-03-20T10:24:43Z</time>
      </trkpt>
      <trkpt lat="49.922" lon="1.11595">
        <ele>83</ele>
        <time>2011-03-20T10:24:57Z</time>
      </trkpt>
      <trkpt lat="49.92227" lon="1.11658">
        <ele>83.019684</ele>
        <time>2011-03-20T10:25:11Z</time>
      </trkpt>
      <trkpt lat="49.92269" lon="1.11739">
        <ele>83.238747</ele>
        <time>2011-03-20T10:25:25Z</time>
      </trkpt>
      <trkpt lat="49.92316" lon="1.11833">
        <ele>83.751953</ele>
        <time>2011-03-20T10:25:39Z</time>
      </trkpt>
      <trkpt lat="49.92366" lon="1.11927">
        <ele>83.290001</ele>
        <time>2011-03-20T10:25:53Z</time>
      </trkpt>
      <trkpt lat="49.92418" lon="1.12025">
        <ele>83.150002</ele>
        <time>2011-03-20T10:26:07Z</time>
      </trkpt>
      <trkpt lat="49.92477" lon="1.12133">
        <ele>82.855003</ele>
        <time>2011-03-20T10:26:21Z</time>
      </trkpt>
      <trkpt lat="49.9255" lon="1.12215">
        <ele>81.87056</ele>
        <time>2011-03-20T10:26:35Z</time>
      </trkpt>
      <trkpt lat="49.92598" lon="1.12284">
        <ele>80.852997</ele>
        <time>2011-03-20T10:26:49Z</time>
      </trkpt>
      <trkpt lat="49.92627" lon="1.12366">
        <ele>79.565002</ele>
        <time>2011-03-20T10:27:03Z</time>
      </trkpt>
      <trkpt lat="49.9268" lon="1.12425">
        <ele>78.546249</ele>
        <time>2011-03-20T10:27:17Z</time>
      </trkpt>
      <trkpt lat="49.92743" lon="1.12424">
        <ele>78.253754</ele>
        <time>2011-03-20T10:27:31Z</time>
      </trkpt>
      <trkpt lat="49.92775" lon="1.12504">
        <ele>79.53994</ele>
        <time>2011-03-20T10:27:45Z</time>
      </trkpt>
      <trkpt lat="49.92796" lon="1.12609">
        <ele>80.929375</ele>
        <time>2011-03-20T10:27:59Z</time>
      </trkpt>
      <trkpt lat="49.92818" lon="1.12718">
        <ele>82.508751</ele>
        <time>2011-03-20T10:28:13Z</time>
      </trkpt>
      <trkpt lat="49.92839" lon="1.12818">
        <ele>82.996811</ele>
        <time>2011-03-20T10:28:27Z</time>
      </trkpt>
      <trkpt lat="49.92819" lon="1.12894">
        <ele>84.029999</ele>
        <time>2011-03-20T10:28:41Z</time>
      </trkpt>
      <trkpt lat="49.92767" lon="1.12956">
        <ele>84.96109</ele>
        <time>2011-03-20T10:28:55Z</time>
      </trkpt>
      <trkpt lat="49.92713" lon="1.13025">
        <ele>85.973885</ele>
        <time>2011-03-20T10:29:09Z</time>
      </trkpt>
      <trkpt lat="49.92655" lon="1.13102">
        <ele>86.095001</ele>
        <time>2011-03-20T10:29:23Z</time>
      </trkpt>
      <trkpt lat="49.92597" lon="1.13183">
        <ele>87</ele>
        <time>2011-03-20T10:29:37Z</time>
      </trkpt>
      <trkpt lat="49.92538" lon="1.13262">
        <ele>87.812576</ele>
        <time>2011-03-20T10:29:51Z</time>
      </trkpt>
      <trkpt lat="49.92482" lon="1.13337">
        <ele>88.306808</ele>
        <time>2011-03-20T10:30:05Z</time>
      </trkpt>
      <trkpt lat="49.92421" lon="1.13401">
        <ele>89.071922</ele>
        <time>2011-03-20T10:30:19Z</time>
      </trkpt>
      <trkpt lat="49.92361" lon="1.13462">
        <ele>90</ele>
        <time>2011-03-20T10:30:33Z</time>
      </trkpt>
      <trkpt lat="49.92304" lon="1.13518">
        <ele>90.836876</ele>
        <time>2011-03-20T10:30:47Z</time>
      </trkpt>
      <trkpt lat="49.92252" lon="1.13569">
        <ele>91.552498</ele>
        <time>2011-03-20T10:31:01Z</time>
      </trkpt>
      <trkpt lat="49.92202" lon="1.1362">
        <ele>92.500626</ele>
        <time>2011-03-20T10:31:15Z</time>
      </trkpt>
      <trkpt lat="49.92155" lon="1.13665">
        <ele>93.329765</ele>
        <time>2011-03-20T10:31:29Z</time>
      </trkpt>
      <trkpt lat="49.92117" lon="1.13729">
        <ele>94.189766</ele>
        <time>2011-03-20T10:31:43Z</time>
      </trkpt>
      <trkpt lat="49.92079" lon="1.138">
        <ele>95</ele>
        <time>2011-03-20T10:31:57Z</time>
      </trkpt>
      <trkpt lat="49.92041" lon="1.13868">
        <ele>95.777496</ele>
        <time>2011-03-20T10:32:11Z</time>
      </trkpt>
      <trkpt lat="49.92029" lon="1.13888">
        <ele>96</ele>
        <time>2011-03-20T10:32:25Z</time>
      </trkpt>
      <trkpt lat="49.92031" lon="1.139">
        <ele>96</ele>
        <time>2011-03-20T10:35:10Z</time>
      </trkpt>
      <trkpt lat="49.9206" lon="1.13964">
        <ele>96.165001</ele>
        <time>2011-03-20T10:35:24Z</time>
      </trkpt>
      <trkpt lat="49.9209" lon="1.1405">
        <ele>96.938705</ele>
        <time>2011-03-20T10:35:38Z</time>
      </trkpt>
      <trkpt lat="49.92118" lon="1.14148">
        <ele>97</ele>
        <time>2011-03-20T10:35:52Z</time>
      </trkpt>
      <trkpt lat="49.9214" lon="1.14251">
        <ele>97</ele>
        <time>2011-03-20T10:36:06Z</time>
      </trkpt>
      <trkpt lat="49.92146" lon="1.14367">
        <ele>97</ele>
        <time>2011-03-20T10:36:20Z</time>
      </trkpt>
      <trkpt lat="49.92145" lon="1.14493">
        <ele>96</ele>
        <time>2011-03-20T10:36:34Z</time>
      </trkpt>
      <trkpt lat="49.92135" lon="1.14627">
        <ele>94.270622</ele>
        <time>2011-03-20T10:36:48Z</time>
      </trkpt>
      <trkpt lat="49.92118" lon="1.14672">
        <ele>94</ele>
        <time>2011-03-20T10:37:02Z</time>
      </trkpt>
      <trkpt lat="49.92069" lon="1.14606">
        <ele>94.595001</ele>
        <time>2011-03-20T10:37:16Z</time>
      </trkpt>
      <trkpt lat="49.92023" lon="1.14551">
        <ele>95.207184</ele>
        <time>2011-03-20T10:37:30Z</time>
      </trkpt>
      <trkpt lat="49.91962" lon="1.14496">
        <ele>96</ele>
        <time>2011-03-20T10:37:44Z</time>
      </trkpt>
      <trkpt lat="49.91903" lon="1.14452">
        <ele>96</ele>
        <time>2011-03-20T10:37:58Z</time>
      </trkpt>
      <trkpt lat="49.91846" lon="1.14403">
        <ele>96</ele>
        <time>2011-03-20T10:38:12Z</time>
      </trkpt>
      <trkpt lat="49.91792" lon="1.14361">
        <ele>96</ele>
        <time>2011-03-20T10:38:26Z</time>
      </trkpt>
      <trkpt lat="49.91784" lon="1.14354">
        <ele>96</ele>
        <time>2011-03-20T10:38:41Z</time>
      </trkpt>
      <trkpt lat="49.91746" lon="1.1433">
        <ele>96</ele>
        <time>2011-03-20T10:38:55Z</time>
      </trkpt>
      <trkpt lat="49.91684" lon="1.14289">
        <ele>95.995003</ele>
        <time>2011-03-20T10:39:09Z</time>
      </trkpt>
      <trkpt lat="49.91623" lon="1.14273">
        <ele>95</ele>
        <time>2011-03-20T10:39:23Z</time>
      </trkpt>
      <trkpt lat="49.91604" lon="1.14377">
        <ele>94.25425</ele>
        <time>2011-03-20T10:39:37Z</time>
      </trkpt>
      <trkpt lat="49.91586" lon="1.14499">
        <ele>92.843201</ele>
        <time>2011-03-20T10:39:51Z</time>
      </trkpt>
      <trkpt lat="49.91568" lon="1.14627">
        <ele>90.166878</ele>
        <time>2011-03-20T10:40:05Z</time>
      </trkpt>
      <trkpt lat="49.91527" lon="1.14746">
        <ele>84.066139</ele>
        <time>2011-03-20T10:40:19Z</time>
      </trkpt>
      <trkpt lat="49.91536" lon="1.14892">
        <ele>76.963737</ele>
        <time>2011-03-20T10:40:33Z</time>
      </trkpt>
      <trkpt lat="49.91538" lon="1.14999">
        <ele>77.806</ele>
        <time>2011-03-20T10:40:47Z</time>
      </trkpt>
      <trkpt lat="49.91536" lon="1.15091">
        <ele>83.31131</ele>
        <time>2011-03-20T10:41:01Z</time>
      </trkpt>
      <trkpt lat="49.91527" lon="1.1517">
        <ele>85.748878</ele>
        <time>2011-03-20T10:41:15Z</time>
      </trkpt>
      <trkpt lat="49.91511" lon="1.15229">
        <ele>86.195999</ele>
        <time>2011-03-20T10:41:29Z</time>
      </trkpt>
      <trkpt lat="49.91502" lon="1.15312">
        <ele>88.149666</ele>
        <time>2011-03-20T10:41:43Z</time>
      </trkpt>
      <trkpt lat="49.91499" lon="1.15384">
        <ele>90.152504</ele>
        <time>2011-03-20T10:41:57Z</time>
      </trkpt>
      <trkpt lat="49.91495" lon="1.15445">
        <ele>91.735626</ele>
        <time>2011-03-20T10:42:11Z</time>
      </trkpt>
      <trkpt lat="49.9149" lon="1.15514">
        <ele>92.961624</ele>
        <time>2011-03-20T10:42:25Z</time>
      </trkpt>
      <trkpt lat="49.91481" lon="1.15588">
        <ele>94.318748</ele>
        <time>2011-03-20T10:42:39Z</time>
      </trkpt>
      <trkpt lat="49.91449" lon="1.15621">
        <ele>95.298752</ele>
        <time>2011-03-20T10:42:53Z</time>
      </trkpt>
      <trkpt lat="49.91402" lon="1.15626">
        <ele>96.396873</ele>
        <time>2011-03-20T10:43:07Z</time>
      </trkpt>
      <trkpt lat="49.91355" lon="1.1563">
        <ele>97.489998</ele>
        <time>2011-03-20T10:43:21Z</time>
      </trkpt>
      <trkpt lat="49.91307" lon="1.15633">
        <ele>98.591248</ele>
        <time>2011-03-20T10:43:35Z</time>
      </trkpt>
      <trkpt lat="49.91255" lon="1.15637">
        <ele>98.991402</ele>
        <time>2011-03-20T10:43:49Z</time>
      </trkpt>
      <trkpt lat="49.912" lon="1.1564">
        <ele>99.972504</ele>
        <time>2011-03-20T10:44:03Z</time>
      </trkpt>
      <trkpt lat="49.91148" lon="1.15643">
        <ele>99.779999</ele>
        <time>2011-03-20T10:44:17Z</time>
      </trkpt>
      <trkpt lat="49.91104" lon="1.15647">
        <ele>98.785004</ele>
        <time>2011-03-20T10:44:31Z</time>
      </trkpt>
      <trkpt lat="49.91047" lon="1.15652">
        <ele>96.148094</ele>
        <time>2011-03-20T10:44:45Z</time>
      </trkpt>
      <trkpt lat="49.90984" lon="1.15579">
        <ele>89.625</ele>
        <time>2011-03-20T10:44:59Z</time>
      </trkpt>
      <trkpt lat="49.9094" lon="1.15475">
        <ele>84.624374</ele>
        <time>2011-03-20T10:45:13Z</time>
      </trkpt>
      <trkpt lat="49.90901" lon="1.15397">
        <ele>83.417503</ele>
        <time>2011-03-20T10:45:27Z</time>
      </trkpt>
      <trkpt lat="49.90889" lon="1.15297">
        <ele>87.519997</ele>
        <time>2011-03-20T10:45:41Z</time>
      </trkpt>
      <trkpt lat="49.90882" lon="1.15212">
        <ele>88.721878</ele>
        <time>2011-03-20T10:45:55Z</time>
      </trkpt>
      <trkpt lat="49.90877" lon="1.15128">
        <ele>89.409637</ele>
        <time>2011-03-20T10:46:09Z</time>
      </trkpt>
      <trkpt lat="49.90807" lon="1.15003">
        <ele>82.186249</ele>
        <time>2011-03-20T10:46:23Z</time>
      </trkpt>
      <trkpt lat="49.9071" lon="1.14854">
        <ele>69.361549</ele>
        <time>2011-03-20T10:46:37Z</time>
      </trkpt>
      <trkpt lat="49.90622" lon="1.14689">
        <ele>58.361202</ele>
        <time>2011-03-20T10:46:51Z</time>
      </trkpt>
      <trkpt lat="49.90472" lon="1.14533">
        <ele>36.393951</ele>
        <time>2011-03-20T10:47:05Z</time>
      </trkpt>
      <trkpt lat="49.90357" lon="1.14386">
        <ele>22.531349</ele>
        <time>2011-03-20T10:47:19Z</time>
      </trkpt>
      <trkpt lat="49.90341" lon="1.14369">
        <ele>20.400082</ele>
        <time>2011-03-20T10:47:33Z</time>
      </trkpt>
      <trkpt lat="49.90317" lon="1.14313">
        <ele>18.490343</ele>
        <time>2011-03-20T10:47:47Z</time>
      </trkpt>
      <trkpt lat="49.90248" lon="1.14273">
        <ele>12.11375</ele>
        <time>2011-03-20T10:48:01Z</time>
      </trkpt>
      <trkpt lat="49.90186" lon="1.14202">
        <ele>10.38</ele>
        <time>2011-03-20T10:48:15Z</time>
      </trkpt>
      <trkpt lat="49.90086" lon="1.14155">
        <ele>6.199512</ele>
        <time>2011-03-20T10:48:30Z</time>
      </trkpt>
      <trkpt lat="49.90017" lon="1.14159">
        <ele>4</ele>
        <time>2011-03-20T10:48:44Z</time>
      </trkpt>
      <trkpt lat="49.89976" lon="1.14213">
        <ele>3.928775</ele>
        <time>2011-03-20T10:48:58Z</time>
      </trkpt>
      <trkpt lat="49.89946" lon="1.14291">
        <ele>3</ele>
        <time>2011-03-20T10:49:12Z</time>
      </trkpt>
      <trkpt lat="49.89904" lon="1.14382">
        <ele>3.294381</ele>
        <time>2011-03-20T10:49:26Z</time>
      </trkpt>
      <trkpt lat="49.89855" lon="1.14472">
        <ele>4</ele>
        <time>2011-03-20T10:49:40Z</time>
      </trkpt>
      <trkpt lat="49.89811" lon="1.14552">
        <ele>5.616875</ele>
        <time>2011-03-20T10:49:54Z</time>
      </trkpt>
      <trkpt lat="49.89784" lon="1.14609">
        <ele>8.736088</ele>
        <time>2011-03-20T10:50:08Z</time>
      </trkpt>
      <trkpt lat="49.89766" lon="1.14658">
        <ele>11.925</ele>
        <time>2011-03-20T10:50:22Z</time>
      </trkpt>
      <trkpt lat="49.89748" lon="1.14702">
        <ele>15.055</ele>
        <time>2011-03-20T10:50:36Z</time>
      </trkpt>
      <trkpt lat="49.8973" lon="1.14747">
        <ele>18.33625</ele>
        <time>2011-03-20T10:50:50Z</time>
      </trkpt>
      <trkpt lat="49.89716" lon="1.14794">
        <ele>21.575678</ele>
        <time>2011-03-20T10:51:04Z</time>
      </trkpt>
      <trkpt lat="49.89708" lon="1.14839">
        <ele>24.798168</ele>
        <time>2011-03-20T10:51:18Z</time>
      </trkpt>
      <trkpt lat="49.89703" lon="1.14879">
        <ele>27.311874</ele>
        <time>2011-03-20T10:51:32Z</time>
      </trkpt>
      <trkpt lat="49.89706" lon="1.14928">
        <ele>29.045626</ele>
        <time>2011-03-20T10:51:46Z</time>
      </trkpt>
      <trkpt lat="49.89709" lon="1.14967">
        <ele>30.311251</ele>
        <time>2011-03-20T10:52:00Z</time>
      </trkpt>
      <trkpt lat="49.89687" lon="1.14951">
        <ele>33.063751</ele>
        <time>2011-03-20T10:52:14Z</time>
      </trkpt>
      <trkpt lat="49.89664" lon="1.14927">
        <ele>35.6875</ele>
        <time>2011-03-20T10:52:28Z</time>
      </trkpt>
      <trkpt lat="49.89646" lon="1.14904">
        <ele>37.833126</ele>
        <time>2011-03-20T10:52:42Z</time>
      </trkpt>
      <trkpt lat="49.89631" lon="1.14883">
        <ele>39.396252</ele>
        <time>2011-03-20T10:52:56Z</time>
      </trkpt>
      <trkpt lat="49.89623" lon="1.14888">
        <ele>41.130402</ele>
        <time>2011-03-20T10:53:26Z</time>
      </trkpt>
      <trkpt lat="49.89615" lon="1.14907">
        <ele>44.201511</ele>
        <time>2011-03-20T10:53:40Z</time>
      </trkpt>
      <trkpt lat="49.89615" lon="1.14928">
        <ele>45.401737</ele>
        <time>2011-03-20T10:53:54Z</time>
      </trkpt>
      <trkpt lat="49.89615" lon="1.14949">
        <ele>46.511173</ele>
        <time>2011-03-20T10:54:08Z</time>
      </trkpt>
      <trkpt lat="49.89614" lon="1.14971">
        <ele>48.103127</ele>
        <time>2011-03-20T10:54:22Z</time>
      </trkpt>
      <trkpt lat="49.89612" lon="1.14991">
        <ele>50.261265</ele>
        <time>2011-03-20T10:54:36Z</time>
      </trkpt>
      <trkpt lat="49.89611" lon="1.15004">
        <ele>52.056252</ele>
        <time>2011-03-20T10:54:54Z</time>
      </trkpt>
      <trkpt lat="49.89611" lon="1.15024">
        <ele>54.179501</ele>
        <time>2011-03-20T10:55:08Z</time>
      </trkpt>
      <trkpt lat="49.8961" lon="1.15055">
        <ele>58.132748</ele>
        <time>2011-03-20T10:55:22Z</time>
      </trkpt>
      <trkpt lat="49.89615" lon="1.15082">
        <ele>60.157898</ele>
        <time>2011-03-20T10:55:36Z</time>
      </trkpt>
      <trkpt lat="49.89621" lon="1.15103">
        <ele>60.278275</ele>
        <time>2011-03-20T10:55:50Z</time>
      </trkpt>
      <trkpt lat="49.89624" lon="1.15117">
        <ele>61.454426</ele>
        <time>2011-03-20T10:56:04Z</time>
      </trkpt>
      <trkpt lat="49.89623" lon="1.1513">
        <ele>63.523445</ele>
        <time>2011-03-20T10:56:21Z</time>
      </trkpt>
      <trkpt lat="49.89623" lon="1.15144">
        <ele>64.95031</ele>
        <time>2011-03-20T10:56:35Z</time>
      </trkpt>
      <trkpt lat="49.89623" lon="1.1516">
        <ele>66.654648</ele>
        <time>2011-03-20T10:56:49Z</time>
      </trkpt>
      <trkpt lat="49.89629" lon="1.15189">
        <ele>68.062553</ele>
        <time>2011-03-20T10:57:03Z</time>
      </trkpt>
      <trkpt lat="49.89631" lon="1.15209">
        <ele>68.883705</ele>
        <time>2011-03-20T10:57:17Z</time>
      </trkpt>
      <trkpt lat="49.89629" lon="1.15227">
        <ele>71.269402</ele>
        <time>2011-03-20T10:57:31Z</time>
      </trkpt>
      <trkpt lat="49.89625" lon="1.15251">
        <ele>74.816772</ele>
        <time>2011-03-20T10:57:45Z</time>
      </trkpt>
      <trkpt lat="49.89623" lon="1.15269">
        <ele>77.181</ele>
        <time>2011-03-20T10:57:59Z</time>
      </trkpt>
      <trkpt lat="49.89616" lon="1.15287">
        <ele>80.412048</ele>
        <time>2011-03-20T10:58:13Z</time>
      </trkpt>
      <trkpt lat="49.89611" lon="1.15301">
        <ele>82.549988</ele>
        <time>2011-03-20T10:58:27Z</time>
      </trkpt>
      <trkpt lat="49.89608" lon="1.15313">
        <ele>84.042801</ele>
        <time>2011-03-20T10:58:54Z</time>
      </trkpt>
      <trkpt lat="49.89606" lon="1.15324">
        <ele>85.045464</ele>
        <time>2011-03-20T10:59:57Z</time>
      </trkpt>
      <trkpt lat="49.89609" lon="1.15378">
        <ele>86.396301</ele>
        <time>2011-03-20T11:00:25Z</time>
      </trkpt>
      <trkpt lat="49.89608" lon="1.15391">
        <ele>86.999023</ele>
        <time>2011-03-20T11:02:08Z</time>
      </trkpt>
      <trkpt lat="49.89607" lon="1.15449">
        <ele>88.900002</ele>
        <time>2011-03-20T11:02:22Z</time>
      </trkpt>
      <trkpt lat="49.89617" lon="1.15521">
        <ele>89.781586</ele>
        <time>2011-03-20T11:02:36Z</time>
      </trkpt>
      <trkpt lat="49.89623" lon="1.15582">
        <ele>90.361877</ele>
        <time>2011-03-20T11:02:50Z</time>
      </trkpt>
      <trkpt lat="49.89631" lon="1.15635">
        <ele>90.099998</ele>
        <time>2011-03-20T11:03:04Z</time>
      </trkpt>
      <trkpt lat="49.8962" lon="1.15685">
        <ele>90.883751</ele>
        <time>2011-03-20T11:03:18Z</time>
      </trkpt>
      <trkpt lat="49.89607" lon="1.15717">
        <ele>91.18</ele>
        <time>2011-03-20T11:03:32Z</time>
      </trkpt>
      <trkpt lat="49.89584" lon="1.1574">
        <ele>92.506363</ele>
        <time>2011-03-20T11:03:46Z</time>
      </trkpt>
      <trkpt lat="49.89543" lon="1.15762">
        <ele>94.671753</ele>
        <time>2011-03-20T11:04:00Z</time>
      </trkpt>
      <trkpt lat="49.89507" lon="1.15819">
        <ele>95.458336</ele>
        <time>2011-03-20T11:04:14Z</time>
      </trkpt>
      <trkpt lat="49.89478" lon="1.15876">
        <ele>96.515007</ele>
        <time>2011-03-20T11:04:28Z</time>
      </trkpt>
      <trkpt lat="49.89449" lon="1.1593">
        <ele>97.646278</ele>
        <time>2011-03-20T11:04:42Z</time>
      </trkpt>
      <trkpt lat="49.89414" lon="1.16001">
        <ele>98.763092</ele>
        <time>2011-03-20T11:04:56Z</time>
      </trkpt>
      <trkpt lat="49.89387" lon="1.16055">
        <ele>99.213127</ele>
        <time>2011-03-20T11:05:10Z</time>
      </trkpt>
      <trkpt lat="49.89351" lon="1.16114">
        <ele>99.345001</ele>
        <time>2011-03-20T11:05:24Z</time>
      </trkpt>
      <trkpt lat="49.89319" lon="1.16158">
        <ele>99.601936</ele>
        <time>2011-03-20T11:05:38Z</time>
      </trkpt>
      <trkpt lat="49.89292" lon="1.1623">
        <ele>99.190575</ele>
        <time>2011-03-20T11:05:52Z</time>
      </trkpt>
      <trkpt lat="49.89284" lon="1.16311">
        <ele>97.651749</ele>
        <time>2011-03-20T11:06:06Z</time>
      </trkpt>
      <trkpt lat="49.89261" lon="1.16355">
        <ele>100.958267</ele>
        <time>2011-03-20T11:06:20Z</time>
      </trkpt>
      <trkpt lat="49.89256" lon="1.16397">
        <ele>102.441254</ele>
        <time>2011-03-20T11:06:34Z</time>
      </trkpt>
      <trkpt lat="49.89254" lon="1.16454">
        <ele>104.040001</ele>
        <time>2011-03-20T11:06:48Z</time>
      </trkpt>
      <trkpt lat="49.89243" lon="1.16529">
        <ele>105.222504</ele>
        <time>2011-03-20T11:07:02Z</time>
      </trkpt>
      <trkpt lat="49.89237" lon="1.16596">
        <ele>107.078751</ele>
        <time>2011-03-20T11:07:16Z</time>
      </trkpt>
      <trkpt lat="49.89235" lon="1.16669">
        <ele>108.183746</ele>
        <time>2011-03-20T11:07:30Z</time>
      </trkpt>
      <trkpt lat="49.8923" lon="1.16745">
        <ele>109.351341</ele>
        <time>2011-03-20T11:07:44Z</time>
      </trkpt>
      <trkpt lat="49.89221" lon="1.16819">
        <ele>110.111374</ele>
        <time>2011-03-20T11:07:58Z</time>
      </trkpt>
      <trkpt lat="49.89207" lon="1.16904">
        <ele>110.720001</ele>
        <time>2011-03-20T11:08:12Z</time>
      </trkpt>
      <trkpt lat="49.89202" lon="1.17003">
        <ele>110.870003</ele>
        <time>2011-03-20T11:08:26Z</time>
      </trkpt>
      <trkpt lat="49.8919" lon="1.17087">
        <ele>112.01947</ele>
        <time>2011-03-20T11:08:40Z</time>
      </trkpt>
      <trkpt lat="49.89186" lon="1.17163">
        <ele>112.25</ele>
        <time>2011-03-20T11:08:54Z</time>
      </trkpt>
      <trkpt lat="49.89186" lon="1.17241">
        <ele>112.50975</ele>
        <time>2011-03-20T11:09:08Z</time>
      </trkpt>
      <trkpt lat="49.89187" lon="1.17329">
        <ele>113.153954</ele>
        <time>2011-03-20T11:09:22Z</time>
      </trkpt>
      <trkpt lat="49.89187" lon="1.17426">
        <ele>113.300728</ele>
        <time>2011-03-20T11:09:36Z</time>
      </trkpt>
      <trkpt lat="49.89183" lon="1.17516">
        <ele>114.115051</ele>
        <time>2011-03-20T11:09:50Z</time>
      </trkpt>
      <trkpt lat="49.89172" lon="1.17607">
        <ele>114.654999</ele>
        <time>2011-03-20T11:10:04Z</time>
      </trkpt>
      <trkpt lat="49.89155" lon="1.17698">
        <ele>115.911285</ele>
        <time>2011-03-20T11:10:18Z</time>
      </trkpt>
      <trkpt lat="49.89132" lon="1.17818">
        <ele>116.589996</ele>
        <time>2011-03-20T11:10:32Z</time>
      </trkpt>
      <trkpt lat="49.89121" lon="1.17924">
        <ele>117.126312</ele>
        <time>2011-03-20T11:10:46Z</time>
      </trkpt>
      <trkpt lat="49.89114" lon="1.18017">
        <ele>118</ele>
        <time>2011-03-20T11:11:00Z</time>
      </trkpt>
      <trkpt lat="49.89105" lon="1.18112">
        <ele>118.226242</ele>
        <time>2011-03-20T11:11:14Z</time>
      </trkpt>
      <trkpt lat="49.89085" lon="1.18207">
        <ele>119</ele>
        <time>2011-03-20T11:11:28Z</time>
      </trkpt>
      <trkpt lat="49.89066" lon="1.18314">
        <ele>119</ele>
        <time>2011-03-20T11:11:42Z</time>
      </trkpt>
      <trkpt lat="49.89056" lon="1.18412">
        <ele>119.494621</ele>
        <time>2011-03-20T11:11:56Z</time>
      </trkpt>
      <trkpt lat="49.89047" lon="1.1851">
        <ele>120</ele>
        <time>2011-03-20T11:12:10Z</time>
      </trkpt>
      <trkpt lat="49.89033" lon="1.18608">
        <ele>120.938347</ele>
        <time>2011-03-20T11:12:24Z</time>
      </trkpt>
      <trkpt lat="49.89021" lon="1.18706">
        <ele>121</ele>
        <time>2011-03-20T11:12:38Z</time>
      </trkpt>
      <trkpt lat="49.88999" lon="1.18811">
        <ele>121.878128</ele>
        <time>2011-03-20T11:12:52Z</time>
      </trkpt>
      <trkpt lat="49.88969" lon="1.18914">
        <ele>122</ele>
        <time>2011-03-20T11:13:06Z</time>
      </trkpt>
      <trkpt lat="49.88931" lon="1.1901">
        <ele>122</ele>
        <time>2011-03-20T11:13:20Z</time>
      </trkpt>
      <trkpt lat="49.889" lon="1.19109">
        <ele>122.978172</ele>
        <time>2011-03-20T11:13:34Z</time>
      </trkpt>
      <trkpt lat="49.8887" lon="1.19208">
        <ele>123</ele>
        <time>2011-03-20T11:13:48Z</time>
      </trkpt>
      <trkpt lat="49.88837" lon="1.19307">
        <ele>123</ele>
        <time>2011-03-20T11:14:02Z</time>
      </trkpt>
      <trkpt lat="49.88802" lon="1.19404">
        <ele>123</ele>
        <time>2011-03-20T11:14:16Z</time>
      </trkpt>
      <trkpt lat="49.88772" lon="1.19509">
        <ele>123</ele>
        <time>2011-03-20T11:14:30Z</time>
      </trkpt>
      <trkpt lat="49.88739" lon="1.1961">
        <ele>124.212692</ele>
        <time>2011-03-20T11:14:44Z</time>
      </trkpt>
      <trkpt lat="49.88708" lon="1.1971">
        <ele>125.320404</ele>
        <time>2011-03-20T11:14:58Z</time>
      </trkpt>
      <trkpt lat="49.88678" lon="1.19814">
        <ele>126</ele>
        <time>2011-03-20T11:15:12Z</time>
      </trkpt>
      <trkpt lat="49.8865" lon="1.19916">
        <ele>126</ele>
        <time>2011-03-20T11:15:26Z</time>
      </trkpt>
      <trkpt lat="49.88624" lon="1.20028">
        <ele>126.535263</ele>
        <time>2011-03-20T11:15:40Z</time>
      </trkpt>
      <trkpt lat="49.88585" lon="1.20131">
        <ele>127</ele>
        <time>2011-03-20T11:15:54Z</time>
      </trkpt>
      <trkpt lat="49.88546" lon="1.20225">
        <ele>128</ele>
        <time>2011-03-20T11:16:08Z</time>
      </trkpt>
      <trkpt lat="49.88519" lon="1.20336">
        <ele>128</ele>
        <time>2011-03-20T11:16:22Z</time>
      </trkpt>
      <trkpt lat="49.88492" lon="1.20445">
        <ele>129</ele>
        <time>2011-03-20T11:16:36Z</time>
      </trkpt>
      <trkpt lat="49.88442" lon="1.20566">
        <ele>129</ele>
        <time>2011-03-20T11:16:50Z</time>
      </trkpt>
      <trkpt lat="49.88379" lon="1.20681">
        <ele>129</ele>
        <time>2011-03-20T11:17:04Z</time>
      </trkpt>
      <trkpt lat="49.88318" lon="1.20786">
        <ele>128.972824</ele>
        <time>2011-03-20T11:17:18Z</time>
      </trkpt>
      <trkpt lat="49.88271" lon="1.20875">
        <ele>128</ele>
        <time>2011-03-20T11:17:32Z</time>
      </trkpt>
      <trkpt lat="49.88238" lon="1.20923">
        <ele>127.820389</ele>
        <time>2011-03-20T11:17:46Z</time>
      </trkpt>
      <trkpt lat="49.88242" lon="1.20951">
        <ele>127.535896</ele>
        <time>2011-03-20T11:18:00Z</time>
      </trkpt>
      <trkpt lat="49.88243" lon="1.20937">
        <ele>127.738281</ele>
        <time>2011-03-20T11:21:23Z</time>
      </trkpt>
      <trkpt lat="49.88246" lon="1.20945">
        <ele>127.666496</ele>
        <time>2011-03-20T11:26:33Z</time>
      </trkpt>
    </trkseg>
  </trk>
</gpx>